Observation data for Claude 12 Southwest on 01/19/2019      Previous  Date  Next       Current Mesonet Observations  Soil Data  Daily Summary Page  Observations in Plain Language
KCL1 190600Z 33026G31KT M01/M02 A3001 RMK A01 T10081020  RH  091%=      5-min Rain = 0
KCL1 190601Z 33022G27KT M01/M02 A3002 RMK A01 T10071020  RH  091%=      5-min Rain = 0
KCL1 190602Z 34021KT M01/M02 A3002 RMK A01 T10071019  RH  092%=      5-min Rain = 0
KCL1 190603Z 34022G29KT M01/M02 A3002 RMK A01 T10071019  RH  092%=      5-min Rain = 0
KCL1 190604Z 33026KT M01/M02 A3002 RMK A01 T10071019  RH  092%=      5-min Rain = 0
KCL1 190605Z 33019G26KT M01/M02 A3002 RMK A01 T10071019  RH  092%=      5-min Rain = 0
KCL1 190606Z 33020G25KT M01/M02 A3002 RMK A01 T10071019  RH  092%=      5-min Rain = 0
KCL1 190607Z 33020G26KT M01/M02 A3002 RMK A01 T10071018  RH  092%=      5-min Rain = 0
KCL1 190608Z 33020KT M01/M02 A3002 RMK A01 T10071018  RH  092%=      5-min Rain = 0
KCL1 190609Z 33023KT M01/M02 A3002 RMK A01 T10071019  RH  092%=      5-min Rain = 0
KCL1 190610Z 33024G32KT M01/M02 A3002 RMK A01 T10061018  RH  091%=      5-min Rain = 0
KCL1 190611Z 33023G31KT M01/M02 A3002 RMK A01 T10061019  RH  091%=      5-min Rain = 0
KCL1 190612Z 33026KT M01/M02 A3002 RMK A01 T10051019  RH  090%=      5-min Rain = 0
KCL1 190613Z 34026G35KT M01/M02 A3002 RMK A01 T10051020  RH  090%=      5-min Rain = 0
KCL1 190614Z 33026G32KT M01/M02 A3002 RMK A01 T10051020  RH  090%=      5-min Rain = 0
KCL1 190615Z 33027G32KT M01/M02 A3002 RMK A01 T10051020  RH  089%=      5-min Rain = 0
KCL1 190616Z 33028G33KT M01/M02 A3001 RMK A01 T10051020  RH  089%=      5-min Rain = 0
KCL1 190617Z 33025G31KT M00/M02 A3002 RMK A01 T10041020  RH  089%=      5-min Rain = 0
KCL1 190618Z 33021G27KT M00/M02 A3002 RMK A01 T10041020  RH  089%=      5-min Rain = 0
KCL1 190619Z 33027KT M00/M02 A3002 RMK A01 T10041020  RH  089%=      5-min Rain = 0
KCL1 190620Z 33026G33KT M00/M02 A3002 RMK A01 T10041020  RH  089%=      5-min Rain = 0
KCL1 190621Z 33025G30KT M00/M02 A3002 RMK A01 T10041020  RH  089%=      5-min Rain = 0
KCL1 190622Z 33029G34KT M00/M02 A3002 RMK A01 T10041020  RH  089%=      5-min Rain = 0
KCL1 190623Z 34028G33KT M00/M02 A3002 RMK A01 T10031021  RH  088%=      5-min Rain = 0
KCL1 190624Z 34033G39KT M00/M02 A3002 RMK A01 T10031021  RH  088%=      5-min Rain = 0
KCL1 190625Z 33025G30KT M00/M02 A3002 RMK A01 T10031022  RH  087%=      5-min Rain = 0
KCL1 190626Z 34030G36KT M00/M02 A3002 RMK A01 T10031022  RH  087%=      5-min Rain = 0
KCL1 190627Z 34026G35KT M00/M02 A3002 RMK A01 T10031023  RH  087%=      5-min Rain = 0
KCL1 190628Z 33027G35KT M00/M02 A3002 RMK A01 T10031022  RH  087%=      5-min Rain = 0
KCL1 190629Z 33028G33KT M00/M02 A3002 RMK A01 T10031022  RH  087%=      5-min Rain = 0
KCL1 190630Z 34027KT M00/M02 A3003 RMK A01 T10031021  RH  088%=      5-min Rain = 0
KCL1 190631Z 33026G35KT M00/M02 A3003 RMK A01 T10031021  RH  088%=      5-min Rain = 0
KCL1 190632Z 33026G33KT M00/M02 A3002 RMK A01 T10031021  RH  088%=      5-min Rain = 0
KCL1 190633Z 33030G35KT M00/M02 A3003 RMK A01 T10031022  RH  088%=      5-min Rain = 0
KCL1 190634Z 33030G35KT M00/M02 A3003 RMK A01 T10031022  RH  087%=      5-min Rain = 0
KCL1 190635Z 33029KT M00/M02 A3003 RMK A01 T10031023  RH  087%=      5-min Rain = 0
KCL1 190636Z 33030G37KT M00/M02 A3003 RMK A01 T10041024  RH  086%=      5-min Rain = 0
KCL1 190637Z 33030G35KT M00/M03 A3003 RMK A01 T10041025  RH  086%=      5-min Rain = 0
KCL1 190638Z 32029G38KT M01/M03 A3003 RMK A01 T10051027  RH  085%=      5-min Rain = 0
KCL1 190639Z 33028G36KT M01/M03 A3003 RMK A01 T10051028  RH  085%=      5-min Rain = 0
KCL1 190640Z 33030G35KT M01/M03 A3003 RMK A01 T10061029  RH  085%=      5-min Rain = 0
KCL1 190641Z 33030G35KT M01/M03 A3003 RMK A01 T10071030  RH  085%=      5-min Rain = 0
KCL1 190642Z 33026G31KT M01/M03 A3003 RMK A01 T10081030  RH  085%=      5-min Rain = 0
KCL1 190643Z 34025G30KT M01/M03 A3004 RMK A01 T10081030  RH  085%=      5-min Rain = 0
KCL1 190644Z 33026G31KT M01/M03 A3004 RMK A01 T10081030  RH  086%=      5-min Rain = 0
KCL1 190645Z 34026KT M01/M03 A3004 RMK A01 T10091030  RH  086%=      5-min Rain = 0
KCL1 190646Z 34021G27KT M01/M03 A3004 RMK A01 T10091030  RH  086%=      5-min Rain = 0
KCL1 190647Z 33028G34KT M01/M03 A3003 RMK A01 T10091029  RH  086%=      5-min Rain = 0
KCL1 190648Z 34028G34KT M01/M03 A3003 RMK A01 T10101030  RH  086%=      5-min Rain = 0
KCL1 190649Z 33026G31KT M01/M03 A3004 RMK A01 T10091031  RH  085%=      5-min Rain = 0
KCL1 190650Z 33026KT M01/M03 A3003 RMK A01 T10101032  RH  085%=      5-min Rain = 0
KCL1 190651Z 34025G31KT M01/M03 A3003 RMK A01 T10101032  RH  085%=      5-min Rain = 0
KCL1 190652Z 33027G35KT M01/M03 A3003 RMK A01 T10101033  RH  084%=      5-min Rain = 0
KCL1 190653Z 33029G35KT M01/M04 A3003 RMK A01 T10101035  RH  083%=      5-min Rain = 0
KCL1 190654Z 33030G36KT M01/M04 A3004 RMK A01 T10101036  RH  083%=      5-min Rain = 0
KCL1 190655Z 34029G38KT M01/M04 A3003 RMK A01 T10101037  RH  082%=      5-min Rain = 0
KCL1 190656Z 34026G32KT M01/M04 A3004 RMK A01 T10111038  RH  082%=      5-min Rain = 0
KCL1 190657Z 33026G32KT M01/M04 A3004 RMK A01 T10121039  RH  082%=      5-min Rain = 0
KCL1 190658Z 34023G30KT M01/M04 A3004 RMK A01 T10121039  RH  082%=      5-min Rain = 0
KCL1 190659Z 34022G27KT M01/M04 A3004 RMK A01 T10131039  RH  082%=      5-min Rain = 0
KCL1 190700Z 33024G30KT M01/M04 A3004 RMK A01 T10131039  RH  083%=      5-min Rain = 0
KCL1 190701Z 34021G26KT M01/M04 A3005 RMK A01 T10141038  RH  083%=      5-min Rain = 0
KCL1 190702Z 33022KT M01/M04 A3005 RMK A01 T10141038  RH  084%=      5-min Rain = 0
KCL1 190703Z 33022G27KT M02/M04 A3005 RMK A01 T10151037  RH  085%=      5-min Rain = 0
KCL1 190704Z 33023G28KT M02/M04 A3004 RMK A01 T10151036  RH  085%=      5-min Rain = 0
KCL1 190705Z 33022G28KT M02/M04 A3004 RMK A01 T10151036  RH  086%=      5-min Rain = 0
KCL1 190706Z 33028G37KT M02/M04 A3004 RMK A01 T10151036  RH  086%=      5-min Rain = 0
KCL1 190707Z 33027G32KT M02/M04 A3004 RMK A01 T10151036  RH  085%=      5-min Rain = 0
KCL1 190708Z 33024G29KT M01/M04 A3004 RMK A01 T10141036  RH  085%=      5-min Rain = 0
KCL1 190709Z 33023G30KT M01/M04 A3005 RMK A01 T10141035  RH  085%=      5-min Rain = 0
KCL1 190710Z 33022G27KT M02/M04 A3005 RMK A01 T10151036  RH  085%=      5-min Rain = 0
KCL1 190711Z 33020KT M02/M04 A3005 RMK A01 T10151036  RH  086%=      5-min Rain = 0
KCL1 190712Z 32022G27KT M02/M04 A3005 RMK A01 T10161036  RH  086%=      5-min Rain = 0
KCL1 190713Z 32023G30KT M02/M04 A3005 RMK A01 T10161036  RH  086%=      5-min Rain = 0
KCL1 190714Z 33023G28KT M02/M04 A3005 RMK A01 T10161036  RH  086%=      5-min Rain = 0
KCL1 190715Z 33021G27KT M02/M04 A3005 RMK A01 T10161037  RH  086%=      5-min Rain = 0
KCL1 190716Z 32023G28KT M02/M04 A3005 RMK A01 T10161037  RH  086%=      5-min Rain = 0
KCL1 190717Z 32023G28KT M02/M04 A3006 RMK A01 T10171038  RH  086%=      5-min Rain = 0
KCL1 190718Z 33021G28KT M02/M04 A3006 RMK A01 T10171038  RH  085%=      5-min Rain = 0
KCL1 190719Z 33024G29KT M02/M04 A3006 RMK A01 T10171038  RH  085%=      5-min Rain = 0
KCL1 190720Z 33024G29KT M02/M04 A3006 RMK A01 T10171039  RH  085%=      5-min Rain = 0
KCL1 190721Z 33025KT M02/M04 A3006 RMK A01 T10181039  RH  085%=      5-min Rain = 0
KCL1 190722Z 32024KT M02/M04 A3006 RMK A01 T10181039  RH  085%=      5-min Rain = 0
KCL1 190723Z 33022G28KT M02/M04 A3006 RMK A01 T10171039  RH  085%=      5-min Rain = 0
KCL1 190724Z 33024G30KT M02/M04 A3006 RMK A01 T10171040  RH  085%=      5-min Rain = 0
KCL1 190725Z 33026G31KT M02/M04 A3006 RMK A01 T10181040  RH  085%=      5-min Rain = 0
KCL1 190726Z 32023G30KT M02/M04 A3006 RMK A01 T10171040  RH  084%=      5-min Rain = 0
KCL1 190727Z 33020G25KT M02/M04 A3006 RMK A01 T10181041  RH  084%=      5-min Rain = 0
KCL1 190728Z 32019KT M02/M04 A3006 RMK A01 T10181041  RH  084%=      5-min Rain = 0
KCL1 190729Z 33022G28KT M02/M04 A3007 RMK A01 T10181041  RH  084%=      5-min Rain = 0
KCL1 190730Z 33022G27KT M02/M04 A3007 RMK A01 T10191041  RH  084%=      5-min Rain = 0
KCL1 190731Z 32024G29KT M02/M04 A3007 RMK A01 T10191042  RH  084%=      5-min Rain = 0
KCL1 190732Z 33021KT M02/M04 A3007 RMK A01 T10191042  RH  084%=      5-min Rain = 0
KCL1 190733Z 33024KT M02/M04 A3007 RMK A01 T10191042  RH  084%=      5-min Rain = 0
KCL1 190734Z 33023KT M02/M04 A3007 RMK A01 T10191043  RH  084%=      5-min Rain = 0
KCL1 190735Z 33018KT M02/M04 A3007 RMK A01 T10191043  RH  084%=      5-min Rain = 0
KCL1 190736Z 33021KT M02/M04 A3007 RMK A01 T10201043  RH  084%=      5-min Rain = 0
KCL1 190737Z 33018KT M02/M04 A3007 RMK A01 T10201043  RH  084%=      5-min Rain = 0
KCL1 190738Z 33016KT M02/M04 A3007 RMK A01 T10201042  RH  085%=      5-min Rain = 0
KCL1 190739Z 33016KT M02/M04 A3007 RMK A01 T10211042  RH  085%=      5-min Rain = 0
KCL1 190740Z 33021G26KT M02/M04 A3007 RMK A01 T10211042  RH  086%=      5-min Rain = 0
KCL1 190741Z 33020KT M02/M04 A3007 RMK A01 T10211042  RH  086%=      5-min Rain = 0
KCL1 190742Z 33021G27KT M02/M04 A3007 RMK A01 T10211042  RH  085%=      5-min Rain = 0
KCL1 190743Z 33022G27KT M02/M04 A3007 RMK A01 T10211042  RH  085%=      5-min Rain = 0
KCL1 190744Z 33020KT M02/M04 A3007 RMK A01 T10201042  RH  085%=      5-min Rain = 0
KCL1 190745Z 33018G28KT M02/M04 A3007 RMK A01 T10201042  RH  085%=      5-min Rain = 0
KCL1 190746Z 33019G25KT M02/M04 A3007 RMK A01 T10211042  RH  085%=      5-min Rain = 0
KCL1 190747Z 33019KT M02/M04 A3007 RMK A01 T10211042  RH  085%=      5-min Rain = 0
KCL1 190748Z 33020KT M02/M04 A3007 RMK A01 T10211043  RH  085%=      5-min Rain = 0
KCL1 190749Z 33019G24KT M02/M04 A3007 RMK A01 T10221043  RH  085%=      5-min Rain = 0
KCL1 190750Z 32023G31KT M02/M04 A3007 RMK A01 T10221043  RH  085%=      5-min Rain = 0
KCL1 190751Z 32024G29KT M02/M04 A3007 RMK A01 T10221044  RH  085%=      5-min Rain = 0
KCL1 190752Z 33022KT M02/M04 A3007 RMK A01 T10221044  RH  085%=      5-min Rain = 0
KCL1 190753Z 33022G28KT M02/M04 A3007 RMK A01 T10221044  RH  085%=      5-min Rain = 0
KCL1 190754Z 33023G28KT M02/M04 A3007 RMK A01 T10221044  RH  085%=      5-min Rain = 0
KCL1 190755Z 33021G28KT M02/M05 A3007 RMK A01 T10221045  RH  084%=      5-min Rain = 0
KCL1 190756Z 33028KT M02/M05 A3007 RMK A01 T10221045  RH  084%=      5-min Rain = 0
KCL1 190757Z 33026G32KT M02/M05 A3007 RMK A01 T10221047  RH  083%=      5-min Rain = 0
KCL1 190758Z 33024G30KT M02/M05 A3007 RMK A01 T10221048  RH  083%=      5-min Rain = 0
KCL1 190759Z 34021G26KT M02/M05 A3007 RMK A01 T10221048  RH  083%=      5-min Rain = 0
KCL1 190800Z 33020KT M02/M05 A3008 RMK A01 T10221048  RH  082%=      5-min Rain = 0
KCL1 190801Z 34025KT M02/M05 A3007 RMK A01 T10231049  RH  082%=      5-min Rain = 0
KCL1 190802Z 34022G28KT M02/M05 A3008 RMK A01 T10231050  RH  082%=      5-min Rain = 0
KCL1 190803Z 34025G31KT M02/M05 A3008 RMK A01 T10231050  RH  082%=      5-min Rain = 0
KCL1 190804Z 34027G32KT M02/M05 A3007 RMK A01 T10231051  RH  081%=      5-min Rain = 0
KCL1 190805Z 34021KT M02/M05 A3008 RMK A01 T10231051  RH  081%=      5-min Rain = 0
KCL1 190806Z 34022G28KT M02/M05 A3008 RMK A01 T10241051  RH  081%=      5-min Rain = 0
KCL1 190807Z 34023G29KT M02/M05 A3008 RMK A01 T10241052  RH  082%=      5-min Rain = 0
KCL1 190808Z 34024G29KT M03/M05 A3008 RMK A01 T10251052  RH  082%=      5-min Rain = 0
KCL1 190809Z 34021KT M03/M05 A3008 RMK A01 T10251052  RH  082%=      5-min Rain = 0
KCL1 190810Z 34024KT M03/M05 A3008 RMK A01 T10251052  RH  082%=      5-min Rain = 0
KCL1 190811Z 34022G29KT M03/M05 A3008 RMK A01 T10261052  RH  082%=      5-min Rain = 0
KCL1 190812Z 33021KT M03/M05 A3008 RMK A01 T10261052  RH  083%=      5-min Rain = 0
KCL1 190813Z 34023KT M03/M05 A3008 RMK A01 T10261051  RH  083%=      5-min Rain = 0
KCL1 190814Z 33021G27KT M03/M05 A3008 RMK A01 T10271051  RH  083%=      5-min Rain = 0
KCL1 190815Z 34022KT M03/M05 A3008 RMK A01 T10271051  RH  083%=      5-min Rain = 0
KCL1 190816Z 33018G23KT M03/M05 A3008 RMK A01 T10271051  RH  084%=      5-min Rain = 0
KCL1 190817Z 33021KT M03/M05 A3008 RMK A01 T10281051  RH  084%=      5-min Rain = 0
KCL1 190818Z 33021G26KT M03/M05 A3008 RMK A01 T10281051  RH  084%=      5-min Rain = 0
KCL1 190819Z 34020G27KT M03/M05 A3008 RMK A01 T10281051  RH  085%=      5-min Rain = 0
KCL1 190820Z 33019KT M03/M05 A3008 RMK A01 T10291051  RH  085%=      5-min Rain = 0
KCL1 190821Z 33019G24KT M03/M05 A3008 RMK A01 T10291050  RH  085%=      5-min Rain = 0
KCL1 190822Z 33019KT M03/M05 A3008 RMK A01 T10301050  RH  086%=      5-min Rain = 0
KCL1 190823Z 33020G26KT M03/M05 A3008 RMK A01 T10301050  RH  086%=      5-min Rain = 0
KCL1 190824Z 33019G24KT M03/M05 A3008 RMK A01 T10301049  RH  086%=      5-min Rain = 0
KCL1 190825Z 33020G26KT M03/M05 A3008 RMK A01 T10301049  RH  087%=      5-min Rain = 0
KCL1 190826Z 33021G29KT M03/M05 A3008 RMK A01 T10291048  RH  087%=      5-min Rain = 0
KCL1 190827Z 33021G26KT M03/M05 A3008 RMK A01 T10291047  RH  087%=      5-min Rain = 0
KCL1 190828Z 33020KT M03/M05 A3008 RMK A01 T10291047  RH  087%=      5-min Rain = 0
KCL1 190829Z 33020G25KT M03/M05 A3009 RMK A01 T10291048  RH  087%=      5-min Rain = 0
KCL1 190830Z 33021G26KT M03/M05 A3009 RMK A01 T10291047  RH  087%=      5-min Rain = 0
KCL1 190831Z 33021KT M03/M05 A3009 RMK A01 T10281047  RH  087%=      5-min Rain = 0
KCL1 190832Z 33022KT M03/M05 A3009 RMK A01 T10281047  RH  087%=      5-min Rain = 0
KCL1 190833Z 33019KT M03/M05 A3009 RMK A01 T10281047  RH  087%=      5-min Rain = 0
KCL1 190834Z 33022KT M03/M05 A3009 RMK A01 T10291048  RH  087%=      5-min Rain = 0
KCL1 190835Z 33021KT M03/M05 A3009 RMK A01 T10281048  RH  087%=      5-min Rain = 0
KCL1 190836Z 33023G28KT M03/M05 A3009 RMK A01 T10281048  RH  087%=      5-min Rain = 0
KCL1 190837Z 33019G24KT M03/M05 A3009 RMK A01 T10281048  RH  086%=      5-min Rain = 0
KCL1 190838Z 33024KT M03/M05 A3009 RMK A01 T10281048  RH  086%=      5-min Rain = 0
KCL1 190839Z 33023G29KT M03/M05 A3009 RMK A01 T10281048  RH  086%=      5-min Rain = 0
KCL1 190840Z 33024KT M03/M05 A3009 RMK A01 T10281048  RH  086%=      5-min Rain = 0
KCL1 190841Z 33022G28KT M03/M05 A3009 RMK A01 T10281048  RH  086%=      5-min Rain = 0
KCL1 190842Z 33021G26KT M03/M05 A3009 RMK A01 T10281048  RH  086%=      5-min Rain = 0
KCL1 190843Z 33022KT M03/M05 A3009 RMK A01 T10281048  RH  086%=      5-min Rain = 0
KCL1 190844Z 33020G26KT M03/M05 A3009 RMK A01 T10281048  RH  086%=      5-min Rain = 0
KCL1 190845Z 33019G24KT M03/M05 A3009 RMK A01 T10281048  RH  087%=      5-min Rain = 0
KCL1 190846Z 34019KT M03/M05 A3009 RMK A01 T10291048  RH  087%=      5-min Rain = 0
KCL1 190847Z 33018KT M03/M05 A301 RMK A01 T10291048  RH  087%=      5-min Rain = 0
KCL1 190848Z 34018G23KT M03/M05 A301 RMK A01 T10301048  RH  087%=      5-min Rain = 0
KCL1 190849Z 33015KT M03/M05 A301 RMK A01 T10301048  RH  088%=      5-min Rain = 0
KCL1 190850Z 34017KT M03/M05 A301 RMK A01 T10311048  RH  088%=      5-min Rain = 0
KCL1 190851Z 34016KT M03/M05 A301 RMK A01 T10311048  RH  088%=      5-min Rain = 0
KCL1 190852Z 34017KT M03/M05 A301 RMK A01 T10311048  RH  089%=      5-min Rain = 0
KCL1 190853Z 34017KT M03/M05 A301 RMK A01 T10311048  RH  089%=      5-min Rain = 0
KCL1 190854Z 34016G21KT M03/M05 A301 RMK A01 T10311047  RH  089%=      5-min Rain = 0
KCL1 190855Z 34019KT M03/M05 A301 RMK A01 T10311047  RH  089%=      5-min Rain = 0
KCL1 190856Z 34018KT M03/M05 A301 RMK A01 T10311047  RH  089%=      5-min Rain = 0
KCL1 190857Z 34019KT M03/M05 A301 RMK A01 T10311048  RH  089%=      5-min Rain = 0
KCL1 190858Z 34018G24KT M03/M05 A301 RMK A01 T10311048  RH  088%=      5-min Rain = 0
KCL1 190859Z 34020G26KT M03/M05 A301 RMK A01 T10311048  RH  088%=      5-min Rain = 0
KCL1 190900Z 34021G26KT M03/M05 A301 RMK A01 T10311048  RH  088%=      5-min Rain = 0
KCL1 190901Z 34022G27KT M03/M05 A301 RMK A01 T10311049  RH  087%=      5-min Rain = 0
KCL1 190902Z 34022G27KT M03/M05 A301 RMK A01 T10311049  RH  087%=      5-min Rain = 0
KCL1 190903Z 34027G34KT M03/M05 A3009 RMK A01 T10301050  RH  087%=      5-min Rain = 0
KCL1 190904Z 34025G30KT M03/M05 A301 RMK A01 T10301050  RH  086%=      5-min Rain = 0
KCL1 190905Z 34018G23KT M03/M05 A301 RMK A01 T10291050  RH  085%=      5-min Rain = 0
KCL1 190906Z 34021G26KT M03/M05 A301 RMK A01 T10301051  RH  085%=      5-min Rain = 0
KCL1 190907Z 34024G30KT M03/M05 A301 RMK A01 T10301051  RH  085%=      5-min Rain = 0
KCL1 190908Z 34024KT M03/M05 A301 RMK A01 T10301052  RH  085%=      5-min Rain = 0
KCL1 190909Z 34024KT M03/M05 A301 RMK A01 T10301052  RH  085%=      5-min Rain = 0
KCL1 190910Z 34023G28KT M03/M05 A301 RMK A01 T10301053  RH  085%=      5-min Rain = 0
KCL1 190911Z 34022KT M03/M05 A301 RMK A01 T10301053  RH  085%=      5-min Rain = 0
KCL1 190912Z 33022KT M03/M05 A301 RMK A01 T10301052  RH  085%=      5-min Rain = 0
KCL1 190913Z 34020KT M03/M05 A301 RMK A01 T10301052  RH  085%=      5-min Rain = 0
KCL1 190914Z 34021G28KT M03/M05 A301 RMK A01 T10311053  RH  085%=      5-min Rain = 0
KCL1 190915Z 34019G26KT M03/M05 A301 RMK A01 T10311052  RH  085%=      5-min Rain = 0
KCL1 190916Z 33022KT M03/M05 A301 RMK A01 T10311052  RH  085%=      5-min Rain = 0
KCL1 190917Z 34020KT M03/M05 A301 RMK A01 T10311052  RH  085%=      5-min Rain = 0
KCL1 190918Z 34020G25KT M03/M05 A301 RMK A01 T10311052  RH  086%=      5-min Rain = 0
KCL1 190919Z 34022G27KT M03/M05 A301 RMK A01 T10311052  RH  086%=      5-min Rain = 0
KCL1 190920Z 33021G28KT M03/M05 A301 RMK A01 T10311051  RH  086%=      5-min Rain = 0
KCL1 190921Z 34020G27KT M03/M05 A3011 RMK A01 T10311051  RH  086%=      5-min Rain = 0
KCL1 190922Z 33018G23KT M03/M05 A3011 RMK A01 T10311051  RH  086%=      5-min Rain = 0
KCL1 190923Z 33019KT M03/M05 A3011 RMK A01 T10311051  RH  086%=      5-min Rain = 0
KCL1 190924Z 34018KT M03/M05 A3011 RMK A01 T10311050  RH  087%=      5-min Rain = 0
KCL1 190925Z 33019KT M03/M05 A3011 RMK A01 T10311050  RH  087%=      5-min Rain = 0
KCL1 190926Z 34018KT M03/M05 A3011 RMK A01 T10311049  RH  087%=      5-min Rain = 0
KCL1 190927Z 33017KT M03/M05 A3011 RMK A01 T10311049  RH  087%=      5-min Rain = 0
KCL1 190928Z 33019KT M03/M05 A3011 RMK A01 T10311049  RH  087%=      5-min Rain = 0
KCL1 190929Z 33017KT M03/M05 A3011 RMK A01 T10311049  RH  088%=      5-min Rain = 0
KCL1 190930Z 33018G23KT M03/M05 A3011 RMK A01 T10311049  RH  088%=      5-min Rain = 0
KCL1 190931Z 33016G22KT M03/M05 A3011 RMK A01 T10311048  RH  088%=      5-min Rain = 0
KCL1 190932Z 33013KT M03/M05 A3011 RMK A01 T10311048  RH  088%=      5-min Rain = 0
KCL1 190933Z 33019KT M03/M05 A3011 RMK A01 T10301047  RH  088%=      5-min Rain = 0
KCL1 190934Z 32016G22KT M03/M05 A3011 RMK A01 T10301046  RH  088%=      5-min Rain = 0
KCL1 190935Z 32015KT M03/M05 A3011 RMK A01 T10291046  RH  088%=      5-min Rain = 0
KCL1 190936Z 32022G30KT M03/M05 A3011 RMK A01 T10291046  RH  088%=      5-min Rain = 0
KCL1 190937Z 33024KT M03/M05 A3011 RMK A01 T10291047  RH  087%=      5-min Rain = 0
KCL1 190938Z 32020G25KT M03/M05 A3012 RMK A01 T10281047  RH  087%=      5-min Rain = 0
KCL1 190939Z 32021KT M03/M05 A3012 RMK A01 T10281048  RH  086%=      5-min Rain = 0
KCL1 190940Z 32017G23KT M03/M05 A3012 RMK A01 T10281048  RH  086%=      5-min Rain = 0
KCL1 190941Z 32018G25KT M03/M05 A3012 RMK A01 T10281048  RH  086%=      5-min Rain = 0
KCL1 190942Z 32025G30KT M03/M05 A3012 RMK A01 T10281049  RH  086%=      5-min Rain = 0
KCL1 190943Z 32025G31KT M03/M05 A3012 RMK A01 T10281050  RH  085%=      5-min Rain = 0
KCL1 190944Z 32022G28KT M03/M05 A3012 RMK A01 T10281050  RH  085%=      5-min Rain = 0
KCL1 190945Z 32025KT M03/M05 A3012 RMK A01 T10281050  RH  085%=      5-min Rain = 0
KCL1 190946Z 32021KT M03/M05 A3012 RMK A01 T10281050  RH  084%=      5-min Rain = 0
KCL1 190947Z 32025G31KT M03/M05 A3012 RMK A01 T10281050  RH  084%=      5-min Rain = 0
KCL1 190948Z 33025G30KT M03/M05 A3011 RMK A01 T10271051  RH  084%=      5-min Rain = 0
KCL1 190949Z 33021G29KT M03/M05 A3012 RMK A01 T10271051  RH  084%=      5-min Rain = 0
KCL1 190950Z 33024G30KT M03/M05 A3012 RMK A01 T10281051  RH  084%=      5-min Rain = 0
KCL1 190951Z 33024G29KT M03/M05 A3011 RMK A01 T10271052  RH  083%=      5-min Rain = 0
KCL1 190952Z 33021G26KT M03/M05 A3011 RMK A01 T10281052  RH  083%=      5-min Rain = 0
KCL1 190953Z 33026KT M03/M05 A3011 RMK A01 T10281053  RH  083%=      5-min Rain = 0
KCL1 190954Z 33022KT M03/M05 A3012 RMK A01 T10281053  RH  083%=      5-min Rain = 0
KCL1 190955Z 33024G29KT M03/M05 A3012 RMK A01 T10291054  RH  083%=      5-min Rain = 0
KCL1 190956Z 33022KT M03/M05 A3012 RMK A01 T10291054  RH  083%=      5-min Rain = 0
KCL1 190957Z 33020G26KT M03/M05 A3012 RMK A01 T10301054  RH  083%=      5-min Rain = 0
KCL1 190958Z 33016KT M03/M05 A3012 RMK A01 T10301054  RH  084%=      5-min Rain = 0
KCL1 190959Z 32017KT M03/M05 A3012 RMK A01 T10311054  RH  084%=      5-min Rain = 0
KCL1 191000Z 32019KT M03/M05 A3012 RMK A01 T10311054  RH  084%=      5-min Rain = 0
KCL1 191001Z 32016KT M03/M05 A3012 RMK A01 T10311053  RH  085%=      5-min Rain = 0
KCL1 191002Z 33016KT M03/M05 A3012 RMK A01 T10311053  RH  085%=      5-min Rain = 0
KCL1 191003Z 33016G24KT M03/M05 A3012 RMK A01 T10311053  RH  085%=      5-min Rain = 0
KCL1 191004Z 33021KT M03/M05 A3012 RMK A01 T10311053  RH  085%=      5-min Rain = 0
KCL1 191005Z 33020KT M03/M05 A3012 RMK A01 T10311052  RH  085%=      5-min Rain = 0
KCL1 191006Z 33019G26KT M03/M05 A3012 RMK A01 T10301052  RH  085%=      5-min Rain = 0
KCL1 191007Z 33017G22KT M03/M05 A3012 RMK A01 T10301052  RH  085%=      5-min Rain = 0
KCL1 191008Z 33018KT M03/M05 A3012 RMK A01 T10301052  RH  085%=      5-min Rain = 0
KCL1 191009Z 33020KT M03/M05 A3012 RMK A01 T10301052  RH  085%=      5-min Rain = 0
KCL1 191010Z 33023KT M03/M05 A3012 RMK A01 T10301052  RH  085%=      5-min Rain = 0
KCL1 191011Z 33019G24KT M03/M05 A3012 RMK A01 T10301052  RH  085%=      5-min Rain = 0
KCL1 191012Z 33023G29KT M03/M05 A3012 RMK A01 T10301052  RH  084%=      5-min Rain = 0
KCL1 191013Z 33024G29KT M03/M05 A3012 RMK A01 T10301053  RH  084%=      5-min Rain = 0
KCL1 191014Z 33018G23KT M03/M05 A3012 RMK A01 T10291052  RH  084%=      5-min Rain = 0
KCL1 191015Z 33020G27KT M03/M05 A3012 RMK A01 T10291053  RH  084%=      5-min Rain = 0
KCL1 191016Z 33020KT M03/M05 A3012 RMK A01 T10301053  RH  084%=      5-min Rain = 0
KCL1 191017Z 32017KT M03/M05 A3012 RMK A01 T10301053  RH  084%=      5-min Rain = 0
KCL1 191018Z 33020KT M03/M05 A3012 RMK A01 T10311053  RH  085%=      5-min Rain = 0
KCL1 191019Z 32018G23KT M03/M05 A3012 RMK A01 T10311053  RH  085%=      5-min Rain = 0
KCL1 191020Z 32017KT M03/M05 A3012 RMK A01 T10311052  RH  085%=      5-min Rain = 0
KCL1 191021Z 32018KT M03/M05 A3012 RMK A01 T10311052  RH  085%=      5-min Rain = 0
KCL1 191022Z 32017G29KT M03/M05 A3012 RMK A01 T10311052  RH  085%=      5-min Rain = 0
KCL1 191023Z 32023G28KT M03/M05 A3012 RMK A01 T10311052  RH  085%=      5-min Rain = 0
KCL1 191024Z 32022G28KT M03/M05 A3012 RMK A01 T10301052  RH  085%=      5-min Rain = 0
KCL1 191025Z 32018KT M03/M05 A3013 RMK A01 T10301052  RH  085%=      5-min Rain = 0
KCL1 191026Z 32023KT M03/M05 A3012 RMK A01 T10301052  RH  085%=      5-min Rain = 0
KCL1 191027Z 32021KT M03/M05 A3012 RMK A01 T10301052  RH  085%=      5-min Rain = 0
KCL1 191028Z 33025KT M03/M05 A3012 RMK A01 T10301053  RH  084%=      5-min Rain = 0
KCL1 191029Z 33025KT M03/M05 A3012 RMK A01 T10301054  RH  084%=      5-min Rain = 0
KCL1 191030Z 33020G26KT M03/M05 A3012 RMK A01 T10301054  RH  084%=      5-min Rain = 0
KCL1 191031Z 33023KT M03/M05 A3012 RMK A01 T10301054  RH  084%=      5-min Rain = 0
KCL1 191032Z 33021G29KT M03/M06 A3012 RMK A01 T10311055  RH  084%=      5-min Rain = 0
KCL1 191033Z 33019KT M03/M06 A3012 RMK A01 T10311055  RH  084%=      5-min Rain = 0
KCL1 191034Z 33023G28KT M03/M06 A3012 RMK A01 T10321055  RH  084%=      5-min Rain = 0
KCL1 191035Z 33019KT M03/M06 A3012 RMK A01 T10321055  RH  084%=      5-min Rain = 0
KCL1 191036Z 33022G27KT M03/M06 A3012 RMK A01 T10321055  RH  084%=      5-min Rain = 0
KCL1 191037Z 33023KT M03/M06 A3012 RMK A01 T10321055  RH  084%=      5-min Rain = 0
KCL1 191038Z 33022G27KT M03/M06 A3012 RMK A01 T10331055  RH  084%=      5-min Rain = 0
KCL1 191039Z 33023KT M03/M06 A3012 RMK A01 T10331055  RH  084%=      5-min Rain = 0
KCL1 191040Z 33021G27KT M03/M06 A3013 RMK A01 T10331056  RH  084%=      5-min Rain = 0
KCL1 191041Z 33017G28KT M03/M06 A3013 RMK A01 T10331055  RH  085%=      5-min Rain = 0
KCL1 191042Z 33023G32KT M03/M06 A3012 RMK A01 T10341056  RH  085%=      5-min Rain = 0
KCL1 191043Z 33023G31KT M03/M06 A3013 RMK A01 T10341056  RH  085%=      5-min Rain = 0
KCL1 191044Z 33026KT M03/M06 A3013 RMK A01 T10331055  RH  085%=      5-min Rain = 0
KCL1 191045Z 33025G30KT M03/M06 A3013 RMK A01 T10331055  RH  085%=      5-min Rain = 0
KCL1 191046Z 33022G30KT M03/M06 A3013 RMK A01 T10331055  RH  084%=      5-min Rain = 0
KCL1 191047Z 33025G31KT M03/M06 A3013 RMK A01 T10331056  RH  084%=      5-min Rain = 0
KCL1 191048Z 33023G28KT M03/M06 A3013 RMK A01 T10331055  RH  085%=      5-min Rain = 0
KCL1 191049Z 33023G29KT M03/M06 A3013 RMK A01 T10331055  RH  085%=      5-min Rain = 0
KCL1 191050Z 33020G26KT M03/M06 A3013 RMK A01 T10341056  RH  085%=      5-min Rain = 0
KCL1 191051Z 33020G25KT M03/M06 A3013 RMK A01 T10341055  RH  085%=      5-min Rain = 0
KCL1 191052Z 33022G27KT M03/M06 A3013 RMK A01 T10341056  RH  085%=      5-min Rain = 0
KCL1 191053Z 33023G29KT M04/M06 A3013 RMK A01 T10351056  RH  085%=      5-min Rain = 0
KCL1 191054Z 33018G24KT M03/M06 A3013 RMK A01 T10341055  RH  086%=      5-min Rain = 0
KCL1 191055Z 33021KT M04/M06 A3013 RMK A01 T10351055  RH  086%=      5-min Rain = 0
KCL1 191056Z 33020KT M04/M06 A3013 RMK A01 T10351055  RH  086%=      5-min Rain = 0
KCL1 191057Z 33020KT M04/M06 A3013 RMK A01 T10351055  RH  086%=      5-min Rain = 0
KCL1 191058Z 33017KT M04/M06 A3013 RMK A01 T10351055  RH  086%=      5-min Rain = 0
KCL1 191059Z 33015G20KT M04/M06 A3013 RMK A01 T10361055  RH  086%=      5-min Rain = 0
KCL1 191100Z 33020G26KT M04/M06 A3013 RMK A01 T10361055  RH  087%=      5-min Rain = 0
KCL1 191101Z 32018KT M04/M06 A3013 RMK A01 T10361055  RH  087%=      5-min Rain = 0
KCL1 191102Z 32016KT M04/M06 A3013 RMK A01 T10361055  RH  087%=      5-min Rain = 0
KCL1 191103Z 32020G26KT M04/M06 A3013 RMK A01 T10361055  RH  087%=      5-min Rain = 0
KCL1 191104Z 32021KT M04/M06 A3013 RMK A01 T10361055  RH  087%=      5-min Rain = 0
KCL1 191105Z 32019KT M04/M05 A3013 RMK A01 T10351054  RH  087%=      5-min Rain = 0
KCL1 191106Z 32019G25KT M04/M05 A3013 RMK A01 T10351054  RH  087%=      5-min Rain = 0
KCL1 191107Z 32016G22KT M03/M05 A3013 RMK A01 T10341054  RH  087%=      5-min Rain = 0
KCL1 191108Z 32016KT M03/M05 A3013 RMK A01 T10341054  RH  087%=      5-min Rain = 0
KCL1 191109Z 32017KT M04/M05 A3014 RMK A01 T10351054  RH  087%=      5-min Rain = 0
KCL1 191110Z 32020KT M03/M05 A3014 RMK A01 T10341053  RH  087%=      5-min Rain = 0
KCL1 191111Z 32017G22KT M03/M05 A3014 RMK A01 T10341053  RH  087%=      5-min Rain = 0
KCL1 191112Z 32019G24KT M03/M05 A3014 RMK A01 T10341053  RH  087%=      5-min Rain = 0
KCL1 191113Z 32021G28KT M03/M05 A3014 RMK A01 T10341053  RH  087%=      5-min Rain = 0
KCL1 191114Z 32020KT M03/M05 A3014 RMK A01 T10341052  RH  087%=      5-min Rain = 0
KCL1 191115Z 32020KT M03/M05 A3014 RMK A01 T10341053  RH  087%=      5-min Rain = 0
KCL1 191116Z 32023G30KT M03/M05 A3014 RMK A01 T10341053  RH  087%=      5-min Rain = 0
KCL1 191117Z 32022KT M03/M05 A3014 RMK A01 T10341053  RH  087%=      5-min Rain = 0
KCL1 191118Z 32023G29KT M03/M05 A3014 RMK A01 T10341053  RH  087%=      5-min Rain = 0
KCL1 191119Z 32023G28KT M03/M05 A3014 RMK A01 T10341053  RH  087%=      5-min Rain = 0
KCL1 191120Z 32019G24KT M03/M05 A3015 RMK A01 T10341053  RH  087%=      5-min Rain = 0
KCL1 191121Z 32019G24KT M03/M05 A3015 RMK A01 T10341053  RH  087%=      5-min Rain = 0
KCL1 191122Z 32017KT M03/M05 A3015 RMK A01 T10341052  RH  087%=      5-min Rain = 0
KCL1 191123Z 32021G26KT M03/M05 A3015 RMK A01 T10341052  RH  087%=      5-min Rain = 0
KCL1 191124Z 32021G26KT M03/M05 A3015 RMK A01 T10341052  RH  087%=      5-min Rain = 0
KCL1 191125Z 32019G26KT M03/M05 A3015 RMK A01 T10331052  RH  087%=      5-min Rain = 0
KCL1 191126Z 32020G25KT M03/M05 A3015 RMK A01 T10331051  RH  087%=      5-min Rain = 0
KCL1 191127Z 32018KT M03/M05 A3015 RMK A01 T10321051  RH  087%=      5-min Rain = 0
KCL1 191128Z 33019KT M03/M05 A3015 RMK A01 T10321051  RH  087%=      5-min Rain = 0
KCL1 191129Z 32016G23KT M03/M05 A3015 RMK A01 T10321050  RH  087%=      5-min Rain = 0
KCL1 191130Z 32016G23KT M03/M05 A3015 RMK A01 T10321050  RH  087%=      5-min Rain = 0
KCL1 191131Z 32020KT M03/M05 A3015 RMK A01 T10321050  RH  087%=      5-min Rain = 0
KCL1 191132Z 32019KT M03/M05 A3015 RMK A01 T10311050  RH  087%=      5-min Rain = 0
KCL1 191133Z 32019KT M03/M05 A3015 RMK A01 T10311049  RH  087%=      5-min Rain = 0
KCL1 191134Z 32018KT M03/M05 A3015 RMK A01 T10311049  RH  087%=      5-min Rain = 0
KCL1 191135Z 32018KT M03/M05 A3015 RMK A01 T10301049  RH  087%=      5-min Rain = 0
KCL1 191136Z 32021KT M03/M05 A3015 RMK A01 T10301049  RH  087%=      5-min Rain = 0
KCL1 191137Z 32021KT M03/M05 A3015 RMK A01 T10301049  RH  087%=      5-min Rain = 0
KCL1 191138Z 32020KT M03/M05 A3015 RMK A01 T10291048  RH  087%=      5-min Rain = 0
KCL1 191139Z 32017G22KT M03/M05 A3015 RMK A01 T10291048  RH  087%=      5-min Rain = 0
KCL1 191140Z 32018G23KT M03/M05 A3015 RMK A01 T10291048  RH  087%=      5-min Rain = 0
KCL1 191141Z 32016G22KT M03/M05 A3016 RMK A01 T10291048  RH  087%=      5-min Rain = 0
KCL1 191142Z 32019KT M03/M05 A3015 RMK A01 T10281047  RH  087%=      5-min Rain = 0
KCL1 191143Z 32016G23KT M03/M05 A3016 RMK A01 T10291048  RH  087%=      5-min Rain = 0
KCL1 191144Z 32018G23KT M03/M05 A3016 RMK A01 T10281047  RH  087%=      5-min Rain = 0
KCL1 191145Z 32018G23KT M03/M05 A3015 RMK A01 T10281047  RH  087%=      5-min Rain = 0
KCL1 191146Z 32018KT M03/M05 A3015 RMK A01 T10281047  RH  087%=      5-min Rain = 0
KCL1 191147Z 32018G23KT M03/M05 A3015 RMK A01 T10281047  RH  087%=      5-min Rain = 0
KCL1 191148Z 32019KT M03/M05 A3015 RMK A01 T10281047  RH  087%=      5-min Rain = 0
KCL1 191149Z 32016KT M03/M05 A3015 RMK A01 T10271046  RH  087%=      5-min Rain = 0
KCL1 191150Z 32018KT M03/M05 A3015 RMK A01 T10271046  RH  087%=      5-min Rain = 0
KCL1 191151Z 32018KT M03/M05 A3016 RMK A01 T10281046  RH  087%=      5-min Rain = 0
KCL1 191152Z 32019KT M03/M05 A3015 RMK A01 T10271046  RH  087%=      5-min Rain = 0
KCL1 191153Z 32019KT M03/M05 A3016 RMK A01 T10271046  RH  087%=      5-min Rain = 0
KCL1 191154Z 32015KT M03/M05 A3016 RMK A01 T10271046  RH  087%=      5-min Rain = 0
KCL1 191155Z 32016KT M03/M05 A3016 RMK A01 T10271045  RH  087%=      5-min Rain = 0
KCL1 191156Z 32016KT M03/M05 A3016 RMK A01 T10271045  RH  087%=      5-min Rain = 0
KCL1 191157Z 32018KT M03/M05 A3016 RMK A01 T10271045  RH  087%=      5-min Rain = 0
KCL1 191158Z 32020KT M03/M05 A3016 RMK A01 T10271046  RH  087%=      5-min Rain = 0
KCL1 191159Z 32017KT M03/M05 A3016 RMK A01 T10271046  RH  087%=      5-min Rain = 0
KCL1 191200Z 32017KT M03/M05 A3016 RMK A01 T10271045  RH  087%=      5-min Rain = 0
KCL1 191201Z 32016KT M03/M05 A3016 RMK A01 T10271045  RH  087%=      5-min Rain = 0
KCL1 191202Z 32016KT M03/M05 A3016 RMK A01 T10271045  RH  088%=      5-min Rain = 0
KCL1 191203Z 32017G22KT M03/M05 A3016 RMK A01 T10271045  RH  088%=      5-min Rain = 0
KCL1 191204Z 32019KT M03/M05 A3016 RMK A01 T10271045  RH  088%=      5-min Rain = 0
KCL1 191205Z 32020KT M03/M05 A3016 RMK A01 T10271045  RH  088%=      5-min Rain = 0
KCL1 191206Z 32017KT M03/M05 A3016 RMK A01 T10271045  RH  088%=      5-min Rain = 0
KCL1 191207Z 32017G22KT M03/M05 A3016 RMK A01 T10271045  RH  088%=      5-min Rain = 0
KCL1 191208Z 32018KT M03/M05 A3016 RMK A01 T10271045  RH  088%=      5-min Rain = 0
KCL1 191209Z 32017KT M03/M05 A3016 RMK A01 T10271045  RH  088%=      5-min Rain = 0
KCL1 191210Z 32020KT M03/M05 A3016 RMK A01 T10271045  RH  088%=      5-min Rain = 0
KCL1 191211Z 32022KT M03/M05 A3016 RMK A01 T10271045  RH  088%=      5-min Rain = 0
KCL1 191212Z 32020KT M03/M05 A3016 RMK A01 T10271045  RH  087%=      5-min Rain = 0
KCL1 191213Z 33020KT M03/M05 A3016 RMK A01 T10271045  RH  087%=      5-min Rain = 0
KCL1 191214Z 32018KT M03/M05 A3016 RMK A01 T10271045  RH  087%=      5-min Rain = 0
KCL1 191215Z 33018G23KT M03/M05 A3016 RMK A01 T10271045  RH  087%=      5-min Rain = 0
KCL1 191216Z 33020G27KT M03/M05 A3016 RMK A01 T10271045  RH  087%=      5-min Rain = 0
KCL1 191217Z 33021KT M03/M05 A3016 RMK A01 T10261045  RH  087%=      5-min Rain = 0
KCL1 191218Z 33021KT M03/M05 A3016 RMK A01 T10261045  RH  087%=      5-min Rain = 0
KCL1 191219Z 33018KT M03/M05 A3016 RMK A01 T10261045  RH  087%=      5-min Rain = 0
KCL1 191220Z 32017KT M03/M05 A3016 RMK A01 T10261045  RH  087%=      5-min Rain = 0
KCL1 191221Z 32017KT M03/M05 A3016 RMK A01 T10261045  RH  087%=      5-min Rain = 0
KCL1 191222Z 32019G25KT M03/M05 A3016 RMK A01 T10261045  RH  087%=      5-min Rain = 0
KCL1 191223Z 33017G25KT M03/M05 A3016 RMK A01 T10271046  RH  087%=      5-min Rain = 0
KCL1 191224Z 32017G22KT M03/M05 A3016 RMK A01 T10271046  RH  087%=      5-min Rain = 0
KCL1 191225Z 32020KT M03/M05 A3016 RMK A01 T10281047  RH  087%=      5-min Rain = 0
KCL1 191226Z 32016G22KT M03/M05 A3017 RMK A01 T10281047  RH  087%=      5-min Rain = 0
KCL1 191227Z 32016KT M03/M05 A3017 RMK A01 T10281048  RH  087%=      5-min Rain = 0
KCL1 191228Z 32018KT M03/M05 A3017 RMK A01 T10301049  RH  087%=      5-min Rain = 0
KCL1 191229Z 32017KT M03/M05 A3017 RMK A01 T10301049  RH  087%=      5-min Rain = 0
KCL1 191230Z 32017KT M03/M05 A3017 RMK A01 T10301049  RH  087%=      5-min Rain = 0
KCL1 191231Z 32016KT M03/M05 A3017 RMK A01 T10311049  RH  087%=      5-min Rain = 0
KCL1 191232Z 32016KT M03/M05 A3017 RMK A01 T10311050  RH  087%=      5-min Rain = 0
KCL1 191233Z 32016G21KT M03/M05 A3017 RMK A01 T10321050  RH  087%=      5-min Rain = 0
KCL1 191234Z 32015KT M03/M05 A3017 RMK A01 T10331051  RH  087%=      5-min Rain = 0
KCL1 191235Z 32013KT M03/M05 A3017 RMK A01 T10331051  RH  088%=      5-min Rain = 0
KCL1 191236Z 32014KT M03/M05 A3017 RMK A01 T10341052  RH  088%=      5-min Rain = 0
KCL1 191237Z 32015KT M04/M05 A3017 RMK A01 T10351052  RH  088%=      5-min Rain = 0
KCL1 191238Z 31013KT M04/M05 A3017 RMK A01 T10351052  RH  088%=      5-min Rain = 0
KCL1 191239Z 32014KT M04/M05 A3017 RMK A01 T10361053  RH  088%=      5-min Rain = 0
KCL1 191240Z 32015KT M04/M05 A3017 RMK A01 T10361052  RH  089%=      5-min Rain = 0
KCL1 191241Z 32015KT M04/M05 A3017 RMK A01 T10361052  RH  089%=      5-min Rain = 0
KCL1 191242Z 32016KT M04/M05 A3017 RMK A01 T10371053  RH  089%=      5-min Rain = 0
KCL1 191243Z 31012KT M04/M05 A3017 RMK A01 T10371053  RH  089%=      5-min Rain = 0
KCL1 191244Z 32016KT M04/M05 A3018 RMK A01 T10381053  RH  089%=      5-min Rain = 0
KCL1 191245Z 32015KT M04/M05 A3018 RMK A01 T10381053  RH  089%=      5-min Rain = 0
KCL1 191246Z 31015KT M04/M05 A3018 RMK A01 T10381053  RH  089%=      5-min Rain = 0
KCL1 191247Z 32014KT M04/M05 A3018 RMK A01 T10391053  RH  089%=      5-min Rain = 0
KCL1 191248Z 32013KT M04/M05 A3018 RMK A01 T10391054  RH  090%=      5-min Rain = 0
KCL1 191249Z 33014KT M04/M05 A3018 RMK A01 T10391054  RH  090%=      5-min Rain = 0
KCL1 191250Z 32013KT M04/M05 A3018 RMK A01 T10391054  RH  090%=      5-min Rain = 0
KCL1 191251Z 32014KT M04/M05 A3018 RMK A01 T10401054  RH  090%=      5-min Rain = 0
KCL1 191252Z 32013KT M04/M05 A3018 RMK A01 T10401054  RH  090%=      5-min Rain = 0
KCL1 191253Z 32015KT M04/M05 A3018 RMK A01 T10401054  RH  090%=      5-min Rain = 0
KCL1 191254Z 33014KT M04/M05 A3018 RMK A01 T10401054  RH  090%=      5-min Rain = 0
KCL1 191255Z 33013KT M04/M05 A3018 RMK A01 T10401054  RH  090%=      5-min Rain = 0
KCL1 191256Z 32013KT M04/M06 A3018 RMK A01 T10411055  RH  090%=      5-min Rain = 0
KCL1 191257Z 33014KT M04/M06 A3018 RMK A01 T10411055  RH  090%=      5-min Rain = 0
KCL1 191258Z 33013KT M04/M06 A3018 RMK A01 T10411055  RH  090%=      5-min Rain = 0
KCL1 191259Z 33013KT M04/M06 A3018 RMK A01 T10421056  RH  090%=      5-min Rain = 0
KCL1 191300Z 33013KT M04/M06 A3018 RMK A01 T10421055  RH  090%=      5-min Rain = 0
KCL1 191301Z 33014KT M04/M06 A3018 RMK A01 T10421056  RH  090%=      5-min Rain = 0
KCL1 191302Z 33013KT M04/M06 A3018 RMK A01 T10421056  RH  091%=      5-min Rain = 0
KCL1 191303Z 33013KT M04/M06 A3018 RMK A01 T10421056  RH  091%=      5-min Rain = 0
KCL1 191304Z 33014KT M04/M06 A3018 RMK A01 T10431056  RH  091%=      5-min Rain = 0
KCL1 191305Z 33015KT M04/M06 A3018 RMK A01 T10431056  RH  091%=      5-min Rain = 0
KCL1 191306Z 33016KT M04/M06 A3018 RMK A01 T10431056  RH  091%=      5-min Rain = 0
KCL1 191307Z 33015KT M04/M06 A3018 RMK A01 T10431056  RH  091%=      5-min Rain = 0
KCL1 191308Z 33014KT M04/M06 A3019 RMK A01 T10431056  RH  091%=      5-min Rain = 0
KCL1 191309Z 33015KT M04/M06 A3019 RMK A01 T10431056  RH  091%=      5-min Rain = 0
KCL1 191310Z 34013KT M04/M06 A3019 RMK A01 T10431056  RH  091%=      5-min Rain = 0
KCL1 191311Z 34015KT M04/M06 A3019 RMK A01 T10431056  RH  091%=      5-min Rain = 0
KCL1 191312Z 34014KT M04/M06 A3019 RMK A01 T10431056  RH  091%=      5-min Rain = 0
KCL1 191313Z 34015KT M04/M06 A3019 RMK A01 T10441056  RH  091%=      5-min Rain = 0
KCL1 191314Z 33014KT M04/M06 A3019 RMK A01 T10441056  RH  091%=      5-min Rain = 0
KCL1 191315Z 33016KT M04/M06 A3019 RMK A01 T10441056  RH  091%=      5-min Rain = 0
KCL1 191316Z 34014KT M04/M06 A3019 RMK A01 T10441056  RH  091%=      5-min Rain = 0
KCL1 191317Z 34015KT M04/M06 A3019 RMK A01 T10441056  RH  091%=      5-min Rain = 0
KCL1 191318Z 34015KT M04/M06 A3019 RMK A01 T10441056  RH  091%=      5-min Rain = 0
KCL1 191319Z 33014KT M04/M06 A3019 RMK A01 T10431055  RH  091%=      5-min Rain = 0
KCL1 191320Z 34016KT M04/M06 A3019 RMK A01 T10431056  RH  091%=      5-min Rain = 0
KCL1 191321Z 34013G18KT M04/M06 A3019 RMK A01 T10431055  RH  091%=      5-min Rain = 0
KCL1 191322Z 34014KT M04/M06 A3019 RMK A01 T10431056  RH  091%=      5-min Rain = 0
KCL1 191323Z 34016KT M04/M06 A3019 RMK A01 T10431056  RH  091%=      5-min Rain = 0
KCL1 191324Z 34014KT M04/M06 A3019 RMK A01 T10431056  RH  091%=      5-min Rain = 0
KCL1 191325Z 34016KT M04/M06 A302 RMK A01 T10431056  RH  091%=      5-min Rain = 0
KCL1 191326Z 33015G20KT M04/M06 A302 RMK A01 T10431056  RH  091%=      5-min Rain = 0
KCL1 191327Z 33016KT M04/M06 A302 RMK A01 T10431055  RH  091%=      5-min Rain = 0
KCL1 191328Z 34014KT M04/M06 A302 RMK A01 T10431055  RH  091%=      5-min Rain = 0
KCL1 191329Z 34015G20KT M04/M06 A302 RMK A01 T10421055  RH  091%=      5-min Rain = 0
KCL1 191330Z 34016KT M04/M06 A302 RMK A01 T10421055  RH  091%=      5-min Rain = 0
KCL1 191331Z 34014KT M04/M06 A302 RMK A01 T10431055  RH  091%=      5-min Rain = 0
KCL1 191332Z 33015KT M04/M06 A302 RMK A01 T10421055  RH  091%=      5-min Rain = 0
KCL1 191333Z 33015KT M04/M06 A302 RMK A01 T10421055  RH  091%=      5-min Rain = 0
KCL1 191334Z 34015KT M04/M06 A302 RMK A01 T10431055  RH  091%=      5-min Rain = 0
KCL1 191335Z 33015KT M04/M06 A302 RMK A01 T10431055  RH  091%=      5-min Rain = 0
KCL1 191336Z 34014KT M04/M06 A302 RMK A01 T10431055  RH  091%=      5-min Rain = 0
KCL1 191337Z 34016KT M04/M06 A302 RMK A01 T10431056  RH  091%=      5-min Rain = 0
KCL1 191338Z 33016KT M04/M06 A302 RMK A01 T10431056  RH  091%=      5-min Rain = 0
KCL1 191339Z 34016KT M04/M06 A302 RMK A01 T10431056  RH  091%=      5-min Rain = 0
KCL1 191340Z 34015KT M04/M06 A302 RMK A01 T10431056  RH  091%=      5-min Rain = 0
KCL1 191341Z 34015KT M04/M06 A302 RMK A01 T10431056  RH  091%=      5-min Rain = 0
KCL1 191342Z 34016KT M04/M06 A302 RMK A01 T10431055  RH  091%=      5-min Rain = 0
KCL1 191343Z 33015KT M04/M06 A302 RMK A01 T10431055  RH  091%=      5-min Rain = 0
KCL1 191344Z 33013KT M04/M06 A302 RMK A01 T10431056  RH  091%=      5-min Rain = 0
KCL1 191345Z 34016KT M04/M06 A302 RMK A01 T10431056  RH  091%=      5-min Rain = 0
KCL1 191346Z 34017KT M04/M06 A302 RMK A01 T10431055  RH  091%=      5-min Rain = 0
KCL1 191347Z 34015KT M04/M06 A302 RMK A01 T10431056  RH  091%=      5-min Rain = 0
KCL1 191348Z 33014G19KT M04/M06 A302 RMK A01 T10431056  RH  091%=      5-min Rain = 0
KCL1 191349Z 34015KT M04/M06 A302 RMK A01 T10431055  RH  091%=      5-min Rain = 0
KCL1 191350Z 34013KT M04/M06 A302 RMK A01 T10431055  RH  091%=      5-min Rain = 0
KCL1 191351Z 34013KT M04/M06 A3021 RMK A01 T10431055  RH  091%=      5-min Rain = 0
KCL1 191352Z 34016KT M04/M06 A302 RMK A01 T10421055  RH  091%=      5-min Rain = 0
KCL1 191353Z 33013KT M04/M06 A3021 RMK A01 T10431055  RH  091%=      5-min Rain = 0
KCL1 191354Z 33016KT M04/M06 A3021 RMK A01 T10431055  RH  091%=      5-min Rain = 0
KCL1 191355Z 33014KT M04/M06 A3021 RMK A01 T10421055  RH  091%=      5-min Rain = 0
KCL1 191356Z 33015KT M04/M06 A3021 RMK A01 T10421055  RH  091%=      5-min Rain = 0
KCL1 191357Z 33018KT M04/M06 A3021 RMK A01 T10421055  RH  091%=      5-min Rain = 0
KCL1 191358Z 33016KT M04/M06 A3021 RMK A01 T10421055  RH  091%=      5-min Rain = 0
KCL1 191359Z 33016KT M04/M06 A3021 RMK A01 T10421055  RH  090%=      5-min Rain = 0
KCL1 191400Z 33014KT M04/M06 A3021 RMK A01 T10421055  RH  090%=      5-min Rain = 0
KCL1 191401Z 33013KT M04/M06 A3021 RMK A01 T10421056  RH  090%=      5-min Rain = 0
KCL1 191402Z 33013KT M04/M06 A3021 RMK A01 T10421056  RH  090%=      5-min Rain = 0
KCL1 191403Z 33014KT M04/M06 A3021 RMK A01 T10421056  RH  090%=      5-min Rain = 0
KCL1 191404Z 33014KT M04/M06 A3021 RMK A01 T10421056  RH  090%=      5-min Rain = 0
KCL1 191405Z 33014KT M04/M06 A3021 RMK A01 T10431056  RH  090%=      5-min Rain = 0
KCL1 191406Z 33017KT M04/M06 A3021 RMK A01 T10431056  RH  090%=      5-min Rain = 0
KCL1 191407Z 33017KT M04/M06 A3021 RMK A01 T10431056  RH  090%=      5-min Rain = 0
KCL1 191408Z 33016KT M04/M06 A3022 RMK A01 T10431056  RH  090%=      5-min Rain = 0
KCL1 191409Z 33017KT M04/M06 A3022 RMK A01 T10421056  RH  090%=      5-min Rain = 0
KCL1 191410Z 33016KT M04/M06 A3022 RMK A01 T10421056  RH  090%=      5-min Rain = 0
KCL1 191411Z 33017KT M04/M06 A3022 RMK A01 T10421056  RH  090%=      5-min Rain = 0
KCL1 191412Z 33015KT M04/M06 A3022 RMK A01 T10421056  RH  090%=      5-min Rain = 0
KCL1 191413Z 33016KT M04/M06 A3022 RMK A01 T10421056  RH  090%=      5-min Rain = 0
KCL1 191414Z 33016KT M04/M06 A3022 RMK A01 T10421056  RH  089%=      5-min Rain = 0
KCL1 191415Z 33018KT M04/M06 A3022 RMK A01 T10421057  RH  089%=      5-min Rain = 0
KCL1 191416Z 33016KT M04/M06 A3022 RMK A01 T10421057  RH  089%=      5-min Rain = 0
KCL1 191417Z 33016KT M04/M06 A3023 RMK A01 T10421057  RH  089%=      5-min Rain = 0
KCL1 191418Z 33014KT M04/M06 A3023 RMK A01 T10421057  RH  089%=      5-min Rain = 0
KCL1 191419Z 33015KT M04/M06 A3023 RMK A01 T10411057  RH  089%=      5-min Rain = 0
KCL1 191420Z 33013KT M04/M06 A3023 RMK A01 T10411057  RH  089%=      5-min Rain = 0
KCL1 191421Z 34011KT M04/M06 A3023 RMK A01 T10411057  RH  089%=      5-min Rain = 0
KCL1 191422Z 33011KT M04/M06 A3023 RMK A01 T10411057  RH  089%=      5-min Rain = 0
KCL1 191423Z 34010KT M04/M06 A3023 RMK A01 T10411057  RH  089%=      5-min Rain = 0
KCL1 191424Z 34010KT M04/M06 A3024 RMK A01 T10411057  RH  089%=      5-min Rain = 0
KCL1 191425Z 34012KT M04/M06 A3024 RMK A01 T10411057  RH  089%=      5-min Rain = 0
KCL1 191426Z 34012KT M04/M06 A3024 RMK A01 T10411057  RH  089%=      5-min Rain = 0
KCL1 191427Z 34012KT M04/M06 A3024 RMK A01 T10411056  RH  089%=      5-min Rain = 0
KCL1 191428Z 34011KT M04/M06 A3024 RMK A01 T10411056  RH  089%=      5-min Rain = 0
KCL1 191429Z 34012KT M04/M06 A3024 RMK A01 T10401056  RH  089%=      5-min Rain = 0
KCL1 191430Z 34013KT M04/M06 A3024 RMK A01 T10401056  RH  089%=      5-min Rain = 0
KCL1 191431Z 34011KT M04/M06 A3024 RMK A01 T10401056  RH  089%=      5-min Rain = 0
KCL1 191432Z 33011KT M04/M06 A3024 RMK A01 T10391055  RH  089%=      5-min Rain = 0
KCL1 191433Z 34010KT M04/M06 A3024 RMK A01 T10391055  RH  089%=      5-min Rain = 0
KCL1 191434Z 34012KT M04/M06 A3024 RMK A01 T10391055  RH  089%=      5-min Rain = 0
KCL1 191435Z 34013KT M04/M06 A3024 RMK A01 T10391055  RH  089%=      5-min Rain = 0
KCL1 191436Z 33014KT M04/M06 A3025 RMK A01 T10391055  RH  088%=      5-min Rain = 0
KCL1 191437Z 33011KT M04/M06 A3025 RMK A01 T10391055  RH  088%=      5-min Rain = 0
KCL1 191438Z 34010KT M04/M06 A3025 RMK A01 T10381055  RH  088%=      5-min Rain = 0
KCL1 191439Z 34012KT M04/M05 A3025 RMK A01 T10381054  RH  088%=      5-min Rain = 0
KCL1 191440Z 34011KT M04/M06 A3025 RMK A01 T10381055  RH  088%=      5-min Rain = 0
KCL1 191441Z 34012KT M04/M06 A3025 RMK A01 T10381055  RH  088%=      5-min Rain = 0
KCL1 191442Z 34011KT M04/M05 A3025 RMK A01 T10371054  RH  088%=      5-min Rain = 0
KCL1 191443Z 34011KT M04/M06 A3025 RMK A01 T10381055  RH  088%=      5-min Rain = 0
KCL1 191444Z 33010KT M04/M06 A3025 RMK A01 T10371055  RH  088%=      5-min Rain = 0
KCL1 191445Z 33012G17KT M04/M05 A3025 RMK A01 T10371054  RH  088%=      5-min Rain = 0
KCL1 191446Z 33013KT M04/M05 A3025 RMK A01 T10371054  RH  088%=      5-min Rain = 0
KCL1 191447Z 33013KT M04/M05 A3025 RMK A01 T10371054  RH  088%=      5-min Rain = 0
KCL1 191448Z 34013KT M04/M05 A3025 RMK A01 T10361054  RH  087%=      5-min Rain = 0
KCL1 191449Z 34015KT M04/M05 A3025 RMK A01 T10361054  RH  087%=      5-min Rain = 0
KCL1 191450Z 33014KT M04/M05 A3025 RMK A01 T10361054  RH  087%=      5-min Rain = 0
KCL1 191451Z 34014KT M04/M05 A3025 RMK A01 T10361054  RH  087%=      5-min Rain = 0
KCL1 191452Z 34014KT M04/M05 A3025 RMK A01 T10351053  RH  087%=      5-min Rain = 0
KCL1 191453Z 34014KT M03/M05 A3025 RMK A01 T10341053  RH  087%=      5-min Rain = 0
KCL1 191454Z 34012KT M03/M05 A3025 RMK A01 T10341052  RH  087%=      5-min Rain = 0
KCL1 191455Z 34013KT M03/M05 A3025 RMK A01 T10331052  RH  087%=      5-min Rain = 0
KCL1 191456Z 33014KT M03/M05 A3025 RMK A01 T10331052  RH  087%=      5-min Rain = 0
KCL1 191457Z 32014KT M03/M05 A3025 RMK A01 T10331052  RH  087%=      5-min Rain = 0
KCL1 191458Z 33016KT M03/M05 A3025 RMK A01 T10321051  RH  087%=      5-min Rain = 0
KCL1 191459Z 33014G19KT M03/M05 A3026 RMK A01 T10311051  RH  086%=      5-min Rain = 0
KCL1 191500Z 33017KT M03/M05 A3025 RMK A01 T10301050  RH  086%=      5-min Rain = 0
KCL1 191501Z 33017KT M03/M05 A3025 RMK A01 T10301050  RH  086%=      5-min Rain = 0
KCL1 191502Z 33020KT M03/M05 A3025 RMK A01 T10291050  RH  085%=      5-min Rain = 0
KCL1 191503Z 33016KT M03/M05 A3026 RMK A01 T10281050  RH  085%=      5-min Rain = 0
KCL1 191504Z 33017G23KT M03/M05 A3026 RMK A01 T10271049  RH  085%=      5-min Rain = 0
KCL1 191505Z 33019KT M03/M05 A3026 RMK A01 T10271049  RH  085%=      5-min Rain = 0
KCL1 191506Z 33018G23KT M03/M05 A3026 RMK A01 T10261049  RH  085%=      5-min Rain = 0
KCL1 191507Z 33017KT M03/M05 A3026 RMK A01 T10261048  RH  085%=      5-min Rain = 0
KCL1 191508Z 33017KT M03/M05 A3026 RMK A01 T10261048  RH  084%=      5-min Rain = 0
KCL1 191509Z 33016G24KT M03/M05 A3026 RMK A01 T10251047  RH  084%=      5-min Rain = 0
KCL1 191510Z 33021KT M02/M05 A3025 RMK A01 T10241048  RH  084%=      5-min Rain = 0
KCL1 191511Z 33018KT M02/M05 A3026 RMK A01 T10241049  RH  084%=      5-min Rain = 0
KCL1 191512Z 33018KT M02/M05 A3026 RMK A01 T10241048  RH  084%=      5-min Rain = 0
KCL1 191513Z 33021G26KT M02/M05 A3026 RMK A01 T10241048  RH  084%=      5-min Rain = 0
KCL1 191514Z 34020KT M02/M05 A3026 RMK A01 T10241049  RH  083%=      5-min Rain = 0
KCL1 191515Z 33018KT M02/M05 A3026 RMK A01 T10241049  RH  083%=      5-min Rain = 0
KCL1 191516Z 33019G24KT M02/M05 A3026 RMK A01 T10231048  RH  083%=      5-min Rain = 0
KCL1 191517Z 34019G24KT M02/M05 A3026 RMK A01 T10231048  RH  083%=      5-min Rain = 0
KCL1 191518Z 33018KT M02/M05 A3026 RMK A01 T10231048  RH  083%=      5-min Rain = 0
KCL1 191519Z 33015KT M02/M05 A3027 RMK A01 T10231048  RH  083%=      5-min Rain = 0
KCL1 191520Z 33022KT M02/M05 A3026 RMK A01 T10221047  RH  083%=      5-min Rain = 0
KCL1 191521Z 33019G24KT M02/M05 A3026 RMK A01 T10221048  RH  082%=      5-min Rain = 0
KCL1 191522Z 33019G26KT M02/M05 A3027 RMK A01 T10231049  RH  082%=      5-min Rain = 0
KCL1 191523Z 33021KT M02/M05 A3027 RMK A01 T10221049  RH  082%=      5-min Rain = 0
KCL1 191524Z 33020KT M02/M05 A3027 RMK A01 T10221049  RH  082%=      5-min Rain = 0
KCL1 191525Z 33016KT M02/M05 A3027 RMK A01 T10221049  RH  082%=      5-min Rain = 0
KCL1 191526Z 33019KT M02/M05 A3027 RMK A01 T10221048  RH  082%=      5-min Rain = 0
KCL1 191527Z 33021KT M02/M05 A3027 RMK A01 T10211048  RH  082%=      5-min Rain = 0
KCL1 191528Z 33018G23KT M02/M05 A3027 RMK A01 T10211048  RH  081%=      5-min Rain = 0
KCL1 191529Z 33022KT M02/M05 A3027 RMK A01 T10201048  RH  081%=      5-min Rain = 0
KCL1 191530Z 34021G27KT M02/M05 A3027 RMK A01 T10201048  RH  081%=      5-min Rain = 0
KCL1 191531Z 33019G24KT M02/M05 A3027 RMK A01 T10201048  RH  081%=      5-min Rain = 0
KCL1 191532Z 33020KT M02/M05 A3027 RMK A01 T10191049  RH  080%=      5-min Rain = 0
KCL1 191533Z 34020KT M02/M05 A3027 RMK A01 T10191048  RH  080%=      5-min Rain = 0
KCL1 191534Z 34019KT M02/M05 A3027 RMK A01 T10191048  RH  080%=      5-min Rain = 0
KCL1 191535Z 34021KT M02/M05 A3027 RMK A01 T10181048  RH  080%=      5-min Rain = 0
KCL1 191536Z 34020G25KT M02/M05 A3027 RMK A01 T10181048  RH  080%=      5-min Rain = 0
KCL1 191537Z 33020KT M02/M05 A3027 RMK A01 T10171048  RH  080%=      5-min Rain = 0
KCL1 191538Z 34018KT M02/M05 A3027 RMK A01 T10171047  RH  080%=      5-min Rain = 0
KCL1 191539Z 34016G22KT M02/M05 A3027 RMK A01 T10161047  RH  080%=      5-min Rain = 0
KCL1 191540Z 34016G22KT M02/M05 A3027 RMK A01 T10151046  RH  080%=      5-min Rain = 0
KCL1 191541Z 34016G21KT M02/M05 A3027 RMK A01 T10151046  RH  079%=      5-min Rain = 0
KCL1 191542Z 34015KT M01/M05 A3027 RMK A01 T10141046  RH  079%=      5-min Rain = 0
KCL1 191543Z 34016G23KT M01/M05 A3028 RMK A01 T10131045  RH  079%=      5-min Rain = 0
KCL1 191544Z 34018KT M01/M05 A3027 RMK A01 T10131045  RH  079%=      5-min Rain = 0
KCL1 191545Z 34016G23KT M01/M05 A3028 RMK A01 T10131046  RH  078%=      5-min Rain = 0
KCL1 191546Z 34021KT M01/M05 A3027 RMK A01 T10131046  RH  078%=      5-min Rain = 0
KCL1 191547Z 34020G25KT M01/M05 A3027 RMK A01 T10141048  RH  078%=      5-min Rain = 0
KCL1 191548Z 34017KT M01/M05 A3028 RMK A01 T10141048  RH  078%=      5-min Rain = 0
KCL1 191549Z 33022KT M01/M05 A3027 RMK A01 T10131046  RH  078%=      5-min Rain = 0
KCL1 191550Z 34018KT M01/M05 A3027 RMK A01 T10131047  RH  078%=      5-min Rain = 0
KCL1 191551Z 33017KT M01/M05 A3027 RMK A01 T10131046  RH  078%=      5-min Rain = 0
KCL1 191552Z 33018KT M01/M05 A3027 RMK A01 T10121046  RH  078%=      5-min Rain = 0
KCL1 191553Z 34018KT M01/M05 A3027 RMK A01 T10121046  RH  078%=      5-min Rain = 0
KCL1 191554Z 34020KT M01/M05 A3028 RMK A01 T10121046  RH  078%=      5-min Rain = 0
KCL1 191555Z 34018G23KT M01/M05 A3028 RMK A01 T10121047  RH  077%=      5-min Rain = 0
KCL1 191556Z 34018G24KT M01/M05 A3028 RMK A01 T10121047  RH  077%=      5-min Rain = 0
KCL1 191557Z 33019KT M01/M05 A3028 RMK A01 T10111046  RH  077%=      5-min Rain = 0
KCL1 191558Z 34018KT M01/M05 A3028 RMK A01 T10111046  RH  077%=      5-min Rain = 0
KCL1 191559Z 34019KT M01/M05 A3028 RMK A01 T10111046  RH  077%=      5-min Rain = 0
KCL1 191600Z 33017G22KT M01/M05 A3028 RMK A01 T10111046  RH  077%=      5-min Rain = 0
KCL1 191601Z 34017KT M01/M04 A3028 RMK A01 T10091044  RH  077%=      5-min Rain = 0
KCL1 191602Z 33019G24KT M01/M04 A3028 RMK A01 T10081043  RH  077%=      5-min Rain = 0
KCL1 191603Z 33019KT M01/M04 A3028 RMK A01 T10081044  RH  076%=      5-min Rain = 0
KCL1 191604Z 33022KT M01/M04 A3028 RMK A01 T10081044  RH  076%=      5-min Rain = 0
KCL1 191605Z 33021KT M01/M04 A3028 RMK A01 T10081044  RH  076%=      5-min Rain = 0
KCL1 191606Z 33020G26KT M01/M05 A3028 RMK A01 T10081045  RH  076%=      5-min Rain = 0
KCL1 191607Z 34019KT M01/M04 A3028 RMK A01 T10071044  RH  076%=      5-min Rain = 0
KCL1 191608Z 34020KT M01/M04 A3028 RMK A01 T10071044  RH  076%=      5-min Rain = 0
KCL1 191609Z 33021KT M01/M04 A3028 RMK A01 T10061043  RH  076%=      5-min Rain = 0
KCL1 191610Z 33021KT M01/M04 A3028 RMK A01 T10061044  RH  075%=      5-min Rain = 0
KCL1 191611Z 33018G24KT M01/M04 A3028 RMK A01 T10061044  RH  076%=      5-min Rain = 0
KCL1 191612Z 33021G26KT M01/M04 A3028 RMK A01 T10051043  RH  075%=      5-min Rain = 0
KCL1 191613Z 33020G25KT M01/M04 A3028 RMK A01 T10051044  RH  075%=      5-min Rain = 0
KCL1 191614Z 33018G25KT M00/M04 A3028 RMK A01 T10041043  RH  075%=      5-min Rain = 0
KCL1 191615Z 34018KT M00/M04 A3028 RMK A01 T10031042  RH  075%=      5-min Rain = 0
KCL1 191616Z 33018G24KT M00/M04 A3028 RMK A01 T10031042  RH  075%=      5-min Rain = 0
KCL1 191617Z 33023KT M00/M04 A3028 RMK A01 T10021042  RH  074%=      5-min Rain = 0
KCL1 191618Z 33024KT M00/M05 A3028 RMK A01 T10041045  RH  074%=      5-min Rain = 0
KCL1 191619Z 33021G27KT M01/M05 A3028 RMK A01 T10051046  RH  074%=      5-min Rain = 0
KCL1 191620Z 34023KT M01/M04 A3029 RMK A01 T10051044  RH  075%=      5-min Rain = 0
KCL1 191621Z 34018G23KT M01/M04 A3029 RMK A01 T10051044  RH  075%=      5-min Rain = 0
KCL1 191622Z 33023KT M00/M04 A3029 RMK A01 T10041043  RH  075%=      5-min Rain = 0
KCL1 191623Z 33020KT M00/M04 A3029 RMK A01 T10041044  RH  074%=      5-min Rain = 0
KCL1 191624Z 33021KT M00/M04 A3029 RMK A01 T10031043  RH  075%=      5-min Rain = 0
KCL1 191625Z 34015G20KT M00/M04 A3029 RMK A01 T10031041  RH  075%=      5-min Rain = 0
KCL1 191626Z 34021G26KT M00/M04 A3029 RMK A01 T10011040  RH  075%=      5-min Rain = 0
KCL1 191627Z 34020G26KT M00/M04 A3029 RMK A01 T10011043  RH  074%=      5-min Rain = 0
KCL1 191628Z 34023G28KT M00/M04 A3029 RMK A01 T10021044  RH  073%=      5-min Rain = 0
KCL1 191629Z 34020KT M00/M04 A3029 RMK A01 T10031044  RH  074%=      5-min Rain = 0
KCL1 191630Z 34020KT M00/M04 A3029 RMK A01 T10021042  RH  074%=      5-min Rain = 0
KCL1 191631Z 33019KT M00/M04 A3029 RMK A01 T10021042  RH  074%=      5-min Rain = 0
KCL1 191632Z 33021G26KT M00/M04 A3029 RMK A01 T10011041  RH  075%=      5-min Rain = 0
KCL1 191633Z 33020KT M00/M04 A3029 RMK A01 T10011041  RH  074%=      5-min Rain = 0
KCL1 191634Z 33020G25KT M00/M04 A303 RMK A01 T10011041  RH  074%=      5-min Rain = 0
KCL1 191635Z 33023KT M00/M04 A303 RMK A01 T10011042  RH  074%=      5-min Rain = 0
KCL1 191636Z 33023KT M00/M04 A303 RMK A01 T10021043  RH  074%=      5-min Rain = 0
KCL1 191637Z 34022G27KT M00/M04 A303 RMK A01 T10031044  RH  074%=      5-min Rain = 0
KCL1 191638Z 33017G23KT M00/M04 A303 RMK A01 T10031043  RH  074%=      5-min Rain = 0
KCL1 191639Z 33021KT M00/M04 A303 RMK A01 T10011041  RH  075%=      5-min Rain = 0
KCL1 191640Z 33019KT M00/M04 A303 RMK A01 T10011041  RH  074%=      5-min Rain = 0
KCL1 191641Z 33025KT M00/M04 A303 RMK A01 T10011042  RH  074%=      5-min Rain = 0
KCL1 191642Z 34021KT M00/M04 A303 RMK A01 T10021044  RH  073%=      5-min Rain = 0
KCL1 191643Z 34021KT M00/M04 A303 RMK A01 T10011042  RH  074%=      5-min Rain = 0
KCL1 191644Z 34024KT 00/04 A303 RMK A01 T00-00-42  RH  073%=      5-min Rain = 0
KCL1 191645Z 33022KT 00/04 A303 RMK A01 T00-00-43  RH  073%=      5-min Rain = 0
KCL1 191646Z 33018KT M00/M04 A303 RMK A01 T10011042  RH  074%=      5-min Rain = 0
KCL1 191647Z 33020KT 00/M04 A303 RMK A01 T00011040  RH  074%=      5-min Rain = 0
KCL1 191648Z 33023KT 00/M04 A3031 RMK A01 T00011041  RH  073%=      5-min Rain = 0
KCL1 191649Z 33024KT 00/04 A303 RMK A01 T00-00-43  RH  073%=      5-min Rain = 0
KCL1 191650Z 34019G24KT M00/M04 A3031 RMK A01 T10011044  RH  073%=      5-min Rain = 0
KCL1 191651Z 34019G25KT 00/04 A303 RMK A01 T00000-42  RH  073%=      5-min Rain = 0
KCL1 191652Z 33016KT 00/M04 A303 RMK A01 T00011041  RH  073%=      5-min Rain = 0
KCL1 191653Z 33018G24KT 00/M04 A303 RMK A01 T00021040  RH  073%=      5-min Rain = 0
KCL1 191654Z 34017KT 00/M04 A303 RMK A01 T00011042  RH  073%=      5-min Rain = 0
KCL1 191655Z 33019KT 00/04 A303 RMK A01 T00000-43  RH  073%=      5-min Rain = 0
KCL1 191656Z 34021KT M00/M04 A303 RMK A01 T10011044  RH  073%=      5-min Rain = 0
KCL1 191657Z 34017G22KT M00/M04 A3031 RMK A01 T10011043  RH  073%=      5-min Rain = 0
KCL1 191658Z 34019KT 00/M04 A3031 RMK A01 T00011041  RH  074%=      5-min Rain = 0
KCL1 191659Z 34018G23KT 00/M04 A3031 RMK A01 T00011041  RH  073%=      5-min Rain = 0
KCL1 191700Z 32018KT 00/M04 A3031 RMK A01 T00021040  RH  073%=      5-min Rain = 0
KCL1 191701Z 33021KT 00/M04 A3031 RMK A01 T00031040  RH  073%=      5-min Rain = 0
KCL1 191702Z 33019KT 00/M04 A3031 RMK A01 T00031041  RH  072%=      5-min Rain = 0
KCL1 191703Z 33017KT 00/M04 A303 RMK A01 T00011043  RH  072%=      5-min Rain = 0
KCL1 191704Z 33017KT 00/04 A303 RMK A01 T00000-43  RH  072%=      5-min Rain = 0
KCL1 191705Z 32020KT 00/04 A303 RMK A01 T00000-42  RH  073%=      5-min Rain = 0
KCL1 191706Z 32017KT 00/04 A303 RMK A01 T00000-43  RH  073%=      5-min Rain = 0
KCL1 191707Z 32015KT M00/M04 A303 RMK A01 T10021044  RH  073%=      5-min Rain = 0
KCL1 191708Z 32014G20KT M00/M04 A303 RMK A01 T10011043  RH  074%=      5-min Rain = 0
KCL1 191709Z 33017KT 00/04 A303 RMK A01 T00000-41  RH  074%=      5-min Rain = 0
KCL1 191710Z 33018KT 00/M04 A3031 RMK A01 T00011041  RH  073%=      5-min Rain = 0
KCL1 191711Z 32018KT 00/M04 A3031 RMK A01 T00021041  RH  073%=      5-min Rain = 0
KCL1 191712Z 33016KT 00/M04 A3031 RMK A01 T00021042  RH  072%=      5-min Rain = 0
KCL1 191713Z 33019KT 00/M04 A3031 RMK A01 T00011042  RH  073%=      5-min Rain = 0
KCL1 191714Z 34014G21KT 00/M04 A3031 RMK A01 T00031041  RH  073%=      5-min Rain = 0
KCL1 191715Z 34017G22KT 00/M04 A3031 RMK A01 T00041039  RH  073%=      5-min Rain = 0
KCL1 191716Z 33019KT 01/M04 A3031 RMK A01 T00061040  RH  072%=      5-min Rain = 0
KCL1 191717Z 33016G21KT 00/M04 A3031 RMK A01 T00041042  RH  071%=      5-min Rain = 0
KCL1 191718Z 33016KT 00/M04 A3031 RMK A01 T00041040  RH  072%=      5-min Rain = 0
KCL1 191719Z 33017KT 00/M04 A3031 RMK A01 T00041041  RH  072%=      5-min Rain = 0
KCL1 191720Z 32016KT 00/M04 A3031 RMK A01 T00041041  RH  072%=      5-min Rain = 0
KCL1 191721Z 32013KT 01/M04 A3031 RMK A01 T00051040  RH  072%=      5-min Rain = 0
KCL1 191722Z 32013G18KT 01/M04 A3031 RMK A01 T00061039  RH  072%=      5-min Rain = 0
KCL1 191723Z 34013KT 01/M04 A3031 RMK A01 T00071038  RH  072%=      5-min Rain = 0
KCL1 191724Z 32014KT 01/M04 A3031 RMK A01 T00091036  RH  072%=      5-min Rain = 0
KCL1 191725Z 32014G20KT 01/M04 A3031 RMK A01 T00101037  RH  071%=      5-min Rain = 0
KCL1 191726Z 34018KT 01/M04 A3031 RMK A01 T00091038  RH  071%=      5-min Rain = 0
KCL1 191727Z 34017KT 01/M04 A3031 RMK A01 T00081040  RH  070%=      5-min Rain = 0
KCL1 191728Z 33018KT 01/M04 A3031 RMK A01 T00081041  RH  070%=      5-min Rain = 0
KCL1 191729Z 33016KT 01/M04 A3031 RMK A01 T00071041  RH  070%=      5-min Rain = 0
KCL1 191730Z 34015G21KT 01/M04 A3031 RMK A01 T00071040  RH  071%=      5-min Rain = 0
KCL1 191731Z 34016G22KT 01/M04 A3031 RMK A01 T00091038  RH  071%=      5-min Rain = 0
KCL1 191732Z 33020KT 01/M04 A3031 RMK A01 T00091040  RH  070%=      5-min Rain = 0
KCL1 191733Z 34019KT 01/M04 A3031 RMK A01 T00081042  RH  069%=      5-min Rain = 0
KCL1 191734Z 33019KT 01/M04 A3032 RMK A01 T00071042  RH  069%=      5-min Rain = 0
KCL1 191735Z 33016KT 01/M04 A3032 RMK A01 T00071042  RH  070%=      5-min Rain = 0
KCL1 191736Z 34018G23KT 01/M04 A3031 RMK A01 T00081041  RH  070%=      5-min Rain = 0
KCL1 191737Z 33017KT 01/M04 A3031 RMK A01 T00091040  RH  070%=      5-min Rain = 0
KCL1 191738Z 33016KT 01/M04 A3032 RMK A01 T00101040  RH  069%=      5-min Rain = 0
KCL1 191739Z 34015G21KT 01/M04 A3031 RMK A01 T00101040  RH  069%=      5-min Rain = 0
KCL1 191740Z 33019KT 01/M04 A3031 RMK A01 T00111040  RH  069%=      5-min Rain = 0
KCL1 191741Z 33018KT 01/M04 A3031 RMK A01 T00111041  RH  068%=      5-min Rain = 0
KCL1 191742Z 33017KT 01/M04 A3031 RMK A01 T00101041  RH  068%=      5-min Rain = 0
KCL1 191743Z 33017G22KT 01/M04 A3031 RMK A01 T00081043  RH  068%=      5-min Rain = 0
KCL1 191744Z 34015KT 01/M04 A3032 RMK A01 T00071043  RH  070%=      5-min Rain = 0
KCL1 191745Z 33017G22KT 01/M04 A3032 RMK A01 T00081040  RH  070%=      5-min Rain = 0
KCL1 191746Z 33018KT 01/M04 A3032 RMK A01 T00101039  RH  069%=      5-min Rain = 0
KCL1 191747Z 34016G21KT 01/M04 A3032 RMK A01 T00121039  RH  069%=      5-min Rain = 0
KCL1 191748Z 34015KT 01/M04 A3032 RMK A01 T00121040  RH  068%=      5-min Rain = 0
KCL1 191749Z 34018KT 01/M04 A3032 RMK A01 T00121040  RH  069%=      5-min Rain = 0
KCL1 191750Z 34020KT 01/M04 A3032 RMK A01 T00121041  RH  068%=      5-min Rain = 0
KCL1 191751Z 34017KT 01/M04 A3032 RMK A01 T00111042  RH  068%=      5-min Rain = 0
KCL1 191752Z 33017KT 01/M04 A3032 RMK A01 T00111041  RH  068%=      5-min Rain = 0
KCL1 191753Z 33016KT 01/M04 A3032 RMK A01 T00111041  RH  068%=      5-min Rain = 0
KCL1 191754Z 33014KT 01/M04 A3032 RMK A01 T00111042  RH  068%=      5-min Rain = 0
KCL1 191755Z 32013KT 01/M04 A3032 RMK A01 T00111040  RH  069%=      5-min Rain = 0
KCL1 191756Z 33012KT 01/M04 A3032 RMK A01 T00131037  RH  069%=      5-min Rain = 0
KCL1 191757Z 34020KT 02/M04 A3032 RMK A01 T00151037  RH  068%=      5-min Rain = 0
KCL1 191758Z 34017KT 01/M04 A3032 RMK A01 T00131040  RH  068%=      5-min Rain = 0
KCL1 191759Z 33018KT 01/M04 A3032 RMK A01 T00121040  RH  068%=      5-min Rain = 0
KCL1 191800Z 33015KT 01/M04 A3032 RMK A01 T00121040  RH  068%=      5-min Rain = 0
KCL1 191801Z 34015KT 01/M04 A3032 RMK A01 T00131039  RH  068%=      5-min Rain = 0
KCL1 191802Z 33016KT 01/M04 A3031 RMK A01 T00131039  RH  068%=      5-min Rain = 0
KCL1 191803Z 33014KT 01/M04 A3031 RMK A01 T00131040  RH  068%=      5-min Rain = 0
KCL1 191804Z 34016KT 01/M04 A3031 RMK A01 T00121040  RH  068%=      5-min Rain = 0
KCL1 191805Z 34015KT 01/M04 A3031 RMK A01 T00131038  RH  069%=      5-min Rain = 0
KCL1 191806Z 33016KT 01/M04 A3031 RMK A01 T00141038  RH  069%=      5-min Rain = 0
KCL1 191807Z 33013KT 01/M04 A3031 RMK A01 T00121040  RH  068%=      5-min Rain = 0
KCL1 191808Z 32017KT 01/M04 A3031 RMK A01 T00121039  RH  069%=      5-min Rain = 0
KCL1 191809Z 32014KT 01/M04 A3031 RMK A01 T00121039  RH  069%=      5-min Rain = 0
KCL1 191810Z 33012KT 01/M04 A3031 RMK A01 T00141037  RH  069%=      5-min Rain = 0
KCL1 191811Z 33016KT 02/M04 A3031 RMK A01 T00151036  RH  069%=      5-min Rain = 0
KCL1 191812Z 33015KT 02/M04 A3031 RMK A01 T00161037  RH  068%=      5-min Rain = 0
KCL1 191813Z 33017KT 02/M04 A3031 RMK A01 T00151037  RH  068%=      5-min Rain = 0
KCL1 191814Z 33015KT 02/M04 A3031 RMK A01 T00161037  RH  068%=      5-min Rain = 0
KCL1 191815Z 34016KT 02/M03 A3031 RMK A01 T00181034  RH  068%=      5-min Rain = 0
KCL1 191816Z 32015KT 02/M04 A3031 RMK A01 T00191035  RH  067%=      5-min Rain = 0
KCL1 191817Z 34013G18KT 02/M04 A3031 RMK A01 T00181036  RH  067%=      5-min Rain = 0
KCL1 191818Z 33017KT 02/M04 A3031 RMK A01 T00181037  RH  067%=      5-min Rain = 0
KCL1 191819Z 34017KT 02/M04 A3031 RMK A01 T00171039  RH  067%=      5-min Rain = 0
KCL1 191820Z 33014G19KT 02/M04 A303 RMK A01 T00161039  RH  067%=      5-min Rain = 0
KCL1 191821Z 32016KT 02/M04 A303 RMK A01 T00171037  RH  067%=      5-min Rain = 0
KCL1 191822Z 32015KT 02/M04 A303 RMK A01 T00181037  RH  067%=      5-min Rain = 0
KCL1 191823Z 33016G22KT 02/M04 A303 RMK A01 T00191036  RH  067%=      5-min Rain = 0
KCL1 191824Z 33015KT 02/M04 A303 RMK A01 T00191038  RH  066%=      5-min Rain = 0
KCL1 191825Z 34017KT 02/M04 A303 RMK A01 T00181038  RH  066%=      5-min Rain = 0
KCL1 191826Z 34016KT 02/M04 A303 RMK A01 T00181038  RH  066%=      5-min Rain = 0
KCL1 191827Z 34015KT 02/M04 A303 RMK A01 T00181037  RH  067%=      5-min Rain = 0
KCL1 191828Z 36017KT 02/M04 A303 RMK A01 T00191037  RH  066%=      5-min Rain = 0
KCL1 191829Z 34015KT 02/M04 A303 RMK A01 T00161040  RH  066%=      5-min Rain = 0
KCL1 191830Z 34015KT 02/M04 A303 RMK A01 T00161038  RH  067%=      5-min Rain = 0
KCL1 191831Z 34016KT 02/M04 A303 RMK A01 T00181036  RH  067%=      5-min Rain = 0
KCL1 191832Z 32015KT 02/M04 A303 RMK A01 T00191036  RH  067%=      5-min Rain = 0
KCL1 191833Z 33013KT 02/M04 A303 RMK A01 T00191036  RH  067%=      5-min Rain = 0
KCL1 191834Z 35013KT 02/M04 A303 RMK A01 T00201035  RH  067%=      5-min Rain = 0
KCL1 191835Z 34015KT 02/M03 A303 RMK A01 T00211034  RH  067%=      5-min Rain = 0
KCL1 191836Z 34012KT 02/M04 A303 RMK A01 T00201036  RH  066%=      5-min Rain = 0
KCL1 191837Z 35015KT 02/M04 A303 RMK A01 T00191036  RH  067%=      5-min Rain = 0
KCL1 191838Z 35015KT 02/M03 A303 RMK A01 T00211034  RH  067%=      5-min Rain = 0
KCL1 191839Z 35014KT 02/M03 A303 RMK A01 T00221034  RH  066%=      5-min Rain = 0
KCL1 191840Z 34012KT 02/M04 A303 RMK A01 T00211035  RH  066%=      5-min Rain = 0
KCL1 191841Z 34016KT 02/M04 A303 RMK A01 T00211035  RH  067%=      5-min Rain = 0
KCL1 191842Z 33013G18KT 02/M03 A303 RMK A01 T00211034  RH  067%=      5-min Rain = 0
KCL1 191843Z 32015KT 02/M03 A303 RMK A01 T00211034  RH  067%=      5-min Rain = 0
KCL1 191844Z 34013KT 02/M03 A303 RMK A01 T00221033  RH  067%=      5-min Rain = 0
KCL1 191845Z 33015KT 02/M03 A303 RMK A01 T00241032  RH  066%=      5-min Rain = 0
KCL1 191846Z 33016KT 02/M03 A3029 RMK A01 T00241034  RH  065%=      5-min Rain = 0
KCL1 191847Z 32014KT 02/M03 A3029 RMK A01 T00231034  RH  066%=      5-min Rain = 0
KCL1 191848Z 33012KT 02/M03 A3029 RMK A01 T00231034  RH  066%=      5-min Rain = 0
KCL1 191849Z 33014KT 03/M03 A3029 RMK A01 T00251031  RH  066%=      5-min Rain = 0
KCL1 191850Z 34016KT 03/M03 A3029 RMK A01 T00271032  RH  065%=      5-min Rain = 0
KCL1 191851Z 35016KT 03/M03 A3029 RMK A01 T00261034  RH  064%=      5-min Rain = 0
KCL1 191852Z 34014KT 03/M04 A3029 RMK A01 T00251035  RH  065%=      5-min Rain = 0
KCL1 191853Z 34013KT 03/M03 A3029 RMK A01 T00261033  RH  065%=      5-min Rain = 0
KCL1 191854Z 34015KT 03/M03 A3029 RMK A01 T00281031  RH  065%=      5-min Rain = 0
KCL1 191855Z 34016KT 03/M03 A3029 RMK A01 T00281034  RH  064%=      5-min Rain = 0
KCL1 191856Z 34015KT 03/M04 A3029 RMK A01 T00271035  RH  064%=      5-min Rain = 0
KCL1 191857Z 34013KT 03/M04 A3029 RMK A01 T00261035  RH  064%=      5-min Rain = 0
KCL1 191858Z 35013G20KT 03/M03 A3028 RMK A01 T00251034  RH  065%=      5-min Rain = 0
KCL1 191859Z 33016KT 03/M03 A3029 RMK A01 T00261033  RH  065%=      5-min Rain = 0
KCL1 191900Z 35014KT 03/M03 A3029 RMK A01 T00261034  RH  065%=      5-min Rain = 0
KCL1 191901Z 34013KT 03/M03 A3029 RMK A01 T00261033  RH  065%=      5-min Rain = 0
KCL1 191902Z 34012KT 03/M03 A3028 RMK A01 T00271033  RH  065%=      5-min Rain = 0
KCL1 191903Z 34012G17KT 03/M03 A3029 RMK A01 T00281032  RH  065%=      5-min Rain = 0
KCL1 191904Z 33016KT 03/M03 A3028 RMK A01 T00291032  RH  064%=      5-min Rain = 0
KCL1 191905Z 33015KT 03/M03 A3028 RMK A01 T00281034  RH  064%=      5-min Rain = 0
KCL1 191906Z 34015KT 03/M03 A3028 RMK A01 T00271034  RH  064%=      5-min Rain = 0
KCL1 191907Z 33011KT 03/M03 A3028 RMK A01 T00271034  RH  064%=      5-min Rain = 0
KCL1 191908Z 33012KT 03/M03 A3028 RMK A01 T00271034  RH  064%=      5-min Rain = 0
KCL1 191909Z 34016KT 03/M03 A3028 RMK A01 T00271033  RH  064%=      5-min Rain = 0
KCL1 191910Z 34016KT 03/M03 A3028 RMK A01 T00281033  RH  064%=      5-min Rain = 0
KCL1 191911Z 33016KT 03/M03 A3028 RMK A01 T00281034  RH  064%=      5-min Rain = 0
KCL1 191912Z 34015KT 03/M04 A3028 RMK A01 T00271035  RH  064%=      5-min Rain = 0
KCL1 191913Z 33015KT 03/M03 A3028 RMK A01 T00281034  RH  064%=      5-min Rain = 0
KCL1 191914Z 34016KT 03/M03 A3028 RMK A01 T00281034  RH  064%=      5-min Rain = 0
KCL1 191915Z 34015KT 03/M03 A3028 RMK A01 T00281034  RH  064%=      5-min Rain = 0
KCL1 191916Z 34016KT 03/M03 A3028 RMK A01 T00271034  RH  064%=      5-min Rain = 0
KCL1 191917Z 33014KT 03/M03 A3028 RMK A01 T00291033  RH  064%=      5-min Rain = 0
KCL1 191918Z 33017KT 03/M03 A3028 RMK A01 T00301033  RH  063%=      5-min Rain = 0
KCL1 191919Z 33017KT 03/M03 A3028 RMK A01 T00301034  RH  063%=      5-min Rain = 0
KCL1 191920Z 34015KT 03/M04 A3028 RMK A01 T00291035  RH  063%=      5-min Rain = 0
KCL1 191921Z 34015KT 03/M04 A3028 RMK A01 T00291035  RH  063%=      5-min Rain = 0
KCL1 191922Z 35012KT 03/M03 A3027 RMK A01 T00291034  RH  063%=      5-min Rain = 0
KCL1 191923Z 35011KT 03/M03 A3027 RMK A01 T00321031  RH  063%=      5-min Rain = 0
KCL1 191924Z 35014KT 03/M03 A3027 RMK A01 T00341031  RH  063%=      5-min Rain = 0
KCL1 191925Z 34014KT 03/M03 A3027 RMK A01 T00331033  RH  062%=      5-min Rain = 0
KCL1 191926Z 35014KT 03/M03 A3027 RMK A01 T00331033  RH  062%=      5-min Rain = 0
KCL1 191927Z 35013KT 03/M03 A3027 RMK A01 T00341032  RH  062%=      5-min Rain = 0
KCL1 191928Z 34014KT 03/M03 A3027 RMK A01 T00341032  RH  062%=      5-min Rain = 0
KCL1 191929Z 34017KT 04/M03 A3027 RMK A01 T00361033  RH  061%=      5-min Rain = 0
KCL1 191930Z 33017KT 04/M03 A3027 RMK A01 T00351034  RH  061%=      5-min Rain = 0
KCL1 191931Z 33013KT 03/M03 A3027 RMK A01 T00341034  RH  061%=      5-min Rain = 0
KCL1 191932Z 33015KT 04/M03 A3027 RMK A01 T00351032  RH  062%=      5-min Rain = 0
KCL1 191933Z 33016KT 04/M03 A3027 RMK A01 T00351032  RH  061%=      5-min Rain = 0
KCL1 191934Z 33012G17KT 03/M03 A3027 RMK A01 T00341033  RH  061%=      5-min Rain = 0
KCL1 191935Z 34013KT 04/M03 A3027 RMK A01 T00371031  RH  061%=      5-min Rain = 0
KCL1 191936Z 34011KT 04/M03 A3027 RMK A01 T00371033  RH  060%=      5-min Rain = 0
KCL1 191937Z 33012KT 04/M03 A3027 RMK A01 T00391030  RH  061%=      5-min Rain = 0
KCL1 191938Z 34010KT 04/M03 A3027 RMK A01 T00401030  RH  060%=      5-min Rain = 0
KCL1 191939Z 34016G21KT 04/M03 A3026 RMK A01 T00431029  RH  060%=      5-min Rain = 0
KCL1 191940Z 33015KT 04/M03 A3026 RMK A01 T00421033  RH  058%=      5-min Rain = 0
KCL1 191941Z 32014KT 04/M03 A3026 RMK A01 T00411032  RH  059%=      5-min Rain = 0
KCL1 191942Z 33012KT 04/M03 A3026 RMK A01 T00401032  RH  059%=      5-min Rain = 0
KCL1 191943Z 32011KT 04/M03 A3027 RMK A01 T00411030  RH  060%=      5-min Rain = 0
KCL1 191944Z 34016KT 04/M03 A3026 RMK A01 T00421030  RH  060%=      5-min Rain = 0
KCL1 191945Z 34015KT 04/M03 A3026 RMK A01 T00421032  RH  058%=      5-min Rain = 0
KCL1 191946Z 35014KT 04/M03 A3026 RMK A01 T00411033  RH  058%=      5-min Rain = 0
KCL1 191947Z 33015KT 04/M03 A3026 RMK A01 T00421033  RH  058%=      5-min Rain = 0
KCL1 191948Z 33015KT 04/M03 A3026 RMK A01 T00421033  RH  058%=      5-min Rain = 0
KCL1 191949Z 32013KT 04/M03 A3026 RMK A01 T00421033  RH  058%=      5-min Rain = 0
KCL1 191950Z 34013G19KT 04/M03 A3026 RMK A01 T00421032  RH  059%=      5-min Rain = 0
KCL1 191951Z 33016KT 04/M03 A3026 RMK A01 T00431032  RH  058%=      5-min Rain = 0
KCL1 191952Z 34015KT 04/M03 A3026 RMK A01 T00431033  RH  058%=      5-min Rain = 0
KCL1 191953Z 33014KT 04/M03 A3026 RMK A01 T00431032  RH  058%=      5-min Rain = 0
KCL1 191954Z 33011G16KT 04/M03 A3026 RMK A01 T00431032  RH  058%=      5-min Rain = 0
KCL1 191955Z 32014KT 04/M03 A3026 RMK A01 T00441032  RH  058%=      5-min Rain = 0
KCL1 191956Z 32012KT 04/M03 A3026 RMK A01 T00441032  RH  058%=      5-min Rain = 0
KCL1 191957Z 33015KT 05/M03 A3026 RMK A01 T00451031  RH  058%=      5-min Rain = 0
KCL1 191958Z 33013KT 04/M03 A3026 RMK A01 T00441033  RH  057%=      5-min Rain = 0
KCL1 191959Z 34013KT 04/M03 A3026 RMK A01 T00431032  RH  058%=      5-min Rain = 0
KCL1 192000Z 34012KT 04/M03 A3026 RMK A01 T00441031  RH  058%=      5-min Rain = 0
KCL1 192001Z 33015KT 04/M03 A3026 RMK A01 T00441031  RH  058%=      5-min Rain = 0
KCL1 192002Z 32014KT 05/M03 A3026 RMK A01 T00451031  RH  058%=      5-min Rain = 0
KCL1 192003Z 32015KT 05/M03 A3026 RMK A01 T00461032  RH  057%=      5-min Rain = 0
KCL1 192004Z 33012KT 05/M03 A3026 RMK A01 T00461032  RH  057%=      5-min Rain = 0
KCL1 192005Z 33016KT 05/M03 A3026 RMK A01 T00471032  RH  057%=      5-min Rain = 0
KCL1 192006Z 32014KT 05/M03 A3026 RMK A01 T00461033  RH  057%=      5-min Rain = 0
KCL1 192007Z 32015KT 05/M03 A3026 RMK A01 T00451033  RH  057%=      5-min Rain = 0
KCL1 192008Z 32013KT 05/M03 A3026 RMK A01 T00451034  RH  057%=      5-min Rain = 0
KCL1 192009Z 33015KT 05/M03 A3025 RMK A01 T00451032  RH  057%=      5-min Rain = 0
KCL1 192010Z 32013KT 05/M03 A3025 RMK A01 T00491029  RH  057%=      5-min Rain = 0
KCL1 192011Z 33013KT 05/M03 A3025 RMK A01 T00491031  RH  056%=      5-min Rain = 0
KCL1 192012Z 32015KT 05/M03 A3025 RMK A01 T00471032  RH  056%=      5-min Rain = 0
KCL1 192013Z 31013KT 05/M03 A3025 RMK A01 T00471032  RH  056%=      5-min Rain = 0
KCL1 192014Z 32013KT 05/M03 A3025 RMK A01 T00471032  RH  057%=      5-min Rain = 0
KCL1 192015Z 32016KT 05/M03 A3025 RMK A01 T00471032  RH  056%=      5-min Rain = 0
KCL1 192016Z 32014KT 05/M03 A3025 RMK A01 T00471034  RH  056%=      5-min Rain = 0
KCL1 192017Z 32012KT 05/M03 A3025 RMK A01 T00461034  RH  056%=      5-min Rain = 0
KCL1 192018Z 31014KT 05/M03 A3025 RMK A01 T00481033  RH  056%=      5-min Rain = 0
KCL1 192019Z 32012KT 05/M03 A3025 RMK A01 T00491033  RH  055%=      5-min Rain = 0
KCL1 192020Z 33011KT 05/M03 A3025 RMK A01 T00521031  RH  055%=      5-min Rain = 0
KCL1 192021Z 31014G19KT 05/M03 A3025 RMK A01 T00541031  RH  054%=      5-min Rain = 0
KCL1 192022Z 32013KT 05/M03 A3025 RMK A01 T00531033  RH  054%=      5-min Rain = 0
KCL1 192023Z 32014KT 05/M03 A3025 RMK A01 T00511034  RH  054%=      5-min Rain = 0
KCL1 192024Z 30013KT 05/M03 A3025 RMK A01 T00511034  RH  054%=      5-min Rain = 0
KCL1 192025Z 31013KT 05/M03 A3025 RMK A01 T00511033  RH  055%=      5-min Rain = 0
KCL1 192026Z 31011KT 05/M03 A3025 RMK A01 T00511033  RH  054%=      5-min Rain = 0
KCL1 192027Z 32011KT 05/M03 A3025 RMK A01 T00531032  RH  055%=      5-min Rain = 0
KCL1 192028Z 32013G18KT 06/M03 A3025 RMK A01 T00551031  RH  054%=      5-min Rain = 0
KCL1 192029Z 31014G19KT 06/M03 A3025 RMK A01 T00551033  RH  053%=      5-min Rain = 0
KCL1 192030Z 33015KT 06/M03 A3025 RMK A01 T00551033  RH  053%=      5-min Rain = 0
KCL1 192031Z 31012G18KT 06/M03 A3025 RMK A01 T00551033  RH  053%=      5-min Rain = 0
KCL1 192032Z 32017KT 06/M03 A3025 RMK A01 T00561033  RH  053%=      5-min Rain = 0
KCL1 192033Z 32015KT 06/M04 A3025 RMK A01 T00561035  RH  052%=      5-min Rain = 0
KCL1 192034Z 32013KT 05/M04 A3025 RMK A01 T00541037  RH  052%=      5-min Rain = 0
KCL1 192035Z 32014KT 05/M04 A3025 RMK A01 T00531036  RH  053%=      5-min Rain = 0
KCL1 192036Z 31012KT 05/M04 A3025 RMK A01 T00531035  RH  053%=      5-min Rain = 0
KCL1 192037Z 31014KT 05/M03 A3025 RMK A01 T00541034  RH  053%=      5-min Rain = 0
KCL1 192038Z 31012G17KT 05/M03 A3025 RMK A01 T00541034  RH  053%=      5-min Rain = 0
KCL1 192039Z 32015KT 06/M03 A3025 RMK A01 T00551033  RH  053%=      5-min Rain = 0
KCL1 192040Z 33013KT 06/M03 A3025 RMK A01 T00561034  RH  052%=      5-min Rain = 0
KCL1 192041Z 33012KT 06/M03 A3025 RMK A01 T00561034  RH  052%=      5-min Rain = 0
KCL1 192042Z 32015KT 06/M03 A3025 RMK A01 T00551034  RH  052%=      5-min Rain = 0
KCL1 192043Z 33013KT 05/M04 A3025 RMK A01 T00531036  RH  052%=      5-min Rain = 0
KCL1 192044Z 32012KT 05/M04 A3025 RMK A01 T00531035  RH  053%=      5-min Rain = 0
KCL1 192045Z 31013KT 06/M03 A3025 RMK A01 T00561032  RH  053%=      5-min Rain = 0
KCL1 192046Z 32013KT 06/M03 A3025 RMK A01 T00561034  RH  052%=      5-min Rain = 0
KCL1 192047Z 32011KT 06/M04 A3025 RMK A01 T00551035  RH  052%=      5-min Rain = 0
KCL1 192048Z 31014G19KT 06/M03 A3025 RMK A01 T00561034  RH  052%=      5-min Rain = 0
KCL1 192049Z 31014KT 06/M04 A3025 RMK A01 T00561035  RH  052%=      5-min Rain = 0
KCL1 192050Z 31010KT 06/M04 A3025 RMK A01 T00561036  RH  051%=      5-min Rain = 0
KCL1 192051Z 33013G18KT 06/M03 A3025 RMK A01 T00581034  RH  051%=      5-min Rain = 0
KCL1 192052Z 32015KT 06/M04 A3025 RMK A01 T00601035  RH  051%=      5-min Rain = 0
KCL1 192053Z 33013KT 06/M04 A3025 RMK A01 T00581038  RH  050%=      5-min Rain = 0
KCL1 192054Z 34017KT 06/M04 A3025 RMK A01 T00571037  RH  051%=      5-min Rain = 0
KCL1 192055Z 32015G20KT 06/M04 A3025 RMK A01 T00561037  RH  051%=      5-min Rain = 0
KCL1 192056Z 32012G17KT 06/M04 A3025 RMK A01 T00571036  RH  051%=      5-min Rain = 0
KCL1 192057Z 32012KT 06/M04 A3025 RMK A01 T00571036  RH  051%=      5-min Rain = 0
KCL1 192058Z 32014KT 06/M04 A3025 RMK A01 T00561036  RH  051%=      5-min Rain = 0
KCL1 192059Z 31015G20KT 06/M04 A3025 RMK A01 T00561037  RH  051%=      5-min Rain = 0
KCL1 192100Z 32015KT 06/M04 A3025 RMK A01 T00561038  RH  051%=      5-min Rain = 0
KCL1 192101Z 32011KT 06/M04 A3025 RMK A01 T00571039  RH  050%=      5-min Rain = 0
KCL1 192102Z 31010KT 06/M04 A3025 RMK A01 T00571038  RH  050%=      5-min Rain = 0
KCL1 192103Z 30011KT 06/M04 A3025 RMK A01 T00591036  RH  051%=      5-min Rain = 0
KCL1 192104Z 31014KT 06/M04 A3025 RMK A01 T00621035  RH  050%=      5-min Rain = 0
KCL1 192105Z 31010KT 06/M04 A3025 RMK A01 T00611036  RH  050%=      5-min Rain = 0
KCL1 192106Z 32010KT 06/M04 A3025 RMK A01 T00611036  RH  050%=      5-min Rain = 0
KCL1 192107Z 32013KT 06/M04 A3025 RMK A01 T00611036  RH  050%=      5-min Rain = 0
KCL1 192108Z 31013KT 06/M04 A3025 RMK A01 T00611037  RH  049%=      5-min Rain = 0
KCL1 192109Z 31013G18KT 06/M04 A3025 RMK A01 T00601038  RH  049%=      5-min Rain = 0
KCL1 192110Z 32011G16KT 06/M04 A3025 RMK A01 T00601037  RH  049%=      5-min Rain = 0
KCL1 192111Z 32012KT 06/M04 A3025 RMK A01 T00611037  RH  050%=      5-min Rain = 0
KCL1 192112Z 31013KT 06/M04 A3025 RMK A01 T00611037  RH  049%=      5-min Rain = 0
KCL1 192113Z 31012KT 06/M04 A3025 RMK A01 T00601038  RH  049%=      5-min Rain = 0
KCL1 192114Z 32011KT 06/M04 A3025 RMK A01 T00611037  RH  049%=      5-min Rain = 0
KCL1 192115Z 31010KT 06/M04 A3025 RMK A01 T00641036  RH  049%=      5-min Rain = 0
KCL1 192116Z 32010KT 07/M04 A3025 RMK A01 T00671035  RH  048%=      5-min Rain = 0
KCL1 192117Z 33013KT 07/M04 A3025 RMK A01 T00681036  RH  047%=      5-min Rain = 0
KCL1 192118Z 32012KT 06/M04 A3025 RMK A01 T00641040  RH  047%=      5-min Rain = 0
KCL1 192119Z 31013KT 06/M04 A3025 RMK A01 T00631038  RH  048%=      5-min Rain = 0
KCL1 192120Z 30012KT 06/M04 A3025 RMK A01 T00631038  RH  048%=      5-min Rain = 0
KCL1 192121Z 31010KT 06/M04 A3025 RMK A01 T00621039  RH  048%=      5-min Rain = 0
KCL1 192122Z 31011KT 06/M04 A3025 RMK A01 T00621039  RH  048%=      5-min Rain = 0
KCL1 192123Z 32016KT 06/M04 A3025 RMK A01 T00621039  RH  048%=      5-min Rain = 0
KCL1 192124Z 33015KT 06/M04 A3025 RMK A01 T00631039  RH  048%=      5-min Rain = 0
KCL1 192125Z 32014KT 06/M04 A3025 RMK A01 T00631040  RH  048%=      5-min Rain = 0
KCL1 192126Z 33011KT 06/M04 A3025 RMK A01 T00611041  RH  048%=      5-min Rain = 0
KCL1 192127Z 32012KT 06/M04 A3025 RMK A01 T00621040  RH  048%=      5-min Rain = 0
KCL1 192128Z 33017KT 06/M04 A3025 RMK A01 T00641041  RH  047%=      5-min Rain = 0
KCL1 192129Z 34014KT 06/M04 A3025 RMK A01 T00641043  RH  046%=      5-min Rain = 0
KCL1 192130Z 33014KT 06/M04 A3025 RMK A01 T00641043  RH  046%=      5-min Rain = 0
KCL1 192131Z 33014KT 06/M04 A3025 RMK A01 T00631042  RH  047%=      5-min Rain = 0
KCL1 192132Z 33013KT 06/M04 A3025 RMK A01 T00631041  RH  047%=      5-min Rain = 0
KCL1 192133Z 32011KT 06/M04 A3025 RMK A01 T00641040  RH  047%=      5-min Rain = 0
KCL1 192134Z 34010KT 06/M04 A3025 RMK A01 T00641040  RH  047%=      5-min Rain = 0
KCL1 192135Z 32011KT 06/M04 A3025 RMK A01 T00641040  RH  047%=      5-min Rain = 0
KCL1 192136Z 32013KT 06/M04 A3025 RMK A01 T00631041  RH  047%=      5-min Rain = 0
KCL1 192137Z 33012KT 06/M04 A3025 RMK A01 T00641040  RH  047%=      5-min Rain = 0
KCL1 192138Z 32013KT 07/M04 A3025 RMK A01 T00651041  RH  047%=      5-min Rain = 0
KCL1 192139Z 31013KT 07/M04 A3025 RMK A01 T00651041  RH  047%=      5-min Rain = 0
KCL1 192140Z 33013KT 07/M04 A3025 RMK A01 T00651041  RH  047%=      5-min Rain = 0
KCL1 192141Z 31012KT 07/M04 A3025 RMK A01 T00661041  RH  046%=      5-min Rain = 0
KCL1 192142Z 32013KT 07/M04 A3025 RMK A01 T00661042  RH  046%=      5-min Rain = 0
KCL1 192143Z 31012KT 07/M04 A3026 RMK A01 T00661042  RH  046%=      5-min Rain = 0
KCL1 192144Z 33011KT 07/M04 A3026 RMK A01 T00661043  RH  046%=      5-min Rain = 0
KCL1 192145Z 33011KT 07/M04 A3026 RMK A01 T00651042  RH  046%=      5-min Rain = 0
KCL1 192146Z 32009KT 06/M04 A3026 RMK A01 T00641041  RH  047%=      5-min Rain = 0
KCL1 192147Z 32010KT 07/M04 A3026 RMK A01 T00651041  RH  047%=      5-min Rain = 0
KCL1 192148Z 33015KT 07/M04 A3026 RMK A01 T00661043  RH  046%=      5-min Rain = 0
KCL1 192149Z 32013G18KT 07/M04 A3026 RMK A01 T00661044  RH  045%=      5-min Rain = 0
KCL1 192150Z 31010KT 07/M04 A3026 RMK A01 T00651043  RH  046%=      5-min Rain = 0
KCL1 192151Z 32011KT 07/M04 A3026 RMK A01 T00671041  RH  046%=      5-min Rain = 0
KCL1 192152Z 32011KT 07/M04 A3026 RMK A01 T00681040  RH  046%=      5-min Rain = 0
KCL1 192153Z 32009KT 07/M04 A3026 RMK A01 T00671042  RH  046%=      5-min Rain = 0
KCL1 192154Z 32012G17KT 07/M04 A3026 RMK A01 T00661041  RH  046%=      5-min Rain = 0
KCL1 192155Z 31014KT 07/M04 A3026 RMK A01 T00671041  RH  046%=      5-min Rain = 0
KCL1 192156Z 32011KT 07/M04 A3026 RMK A01 T00671041  RH  046%=      5-min Rain = 0
KCL1 192157Z 32013KT 07/M04 A3026 RMK A01 T00671042  RH  046%=      5-min Rain = 0
KCL1 192158Z 33009KT 07/M04 A3026 RMK A01 T00671043  RH  045%=      5-min Rain = 0
KCL1 192159Z 34010KT 07/M04 A3026 RMK A01 T00671043  RH  046%=      5-min Rain = 0
KCL1 192200Z 33011KT 07/M04 A3025 RMK A01 T00671043  RH  046%=      5-min Rain = 0
KCL1 192201Z 32013KT 07/M04 A3025 RMK A01 T00671042  RH  046%=      5-min Rain = 0
KCL1 192202Z 32012KT 07/M04 A3025 RMK A01 T00671042  RH  046%=      5-min Rain = 0
KCL1 192203Z 32011KT 07/M04 A3026 RMK A01 T00681042  RH  046%=      5-min Rain = 0
KCL1 192204Z 33013KT 07/M04 A3025 RMK A01 T00681042  RH  045%=      5-min Rain = 0
KCL1 192205Z 34012KT 07/M04 A3026 RMK A01 T00671043  RH  045%=      5-min Rain = 0
KCL1 192206Z 34012KT 07/M04 A3026 RMK A01 T00661044  RH  045%=      5-min Rain = 0
KCL1 192207Z 34012KT 07/M05 A3026 RMK A01 T00661045  RH  045%=      5-min Rain = 0
KCL1 192208Z 34014KT 07/M05 A3026 RMK A01 T00651045  RH  045%=      5-min Rain = 0
KCL1 192209Z 33012KT 07/M04 A3025 RMK A01 T00661044  RH  045%=      5-min Rain = 0
KCL1 192210Z 33013KT 07/M05 A3025 RMK A01 T00671045  RH  045%=      5-min Rain = 0
KCL1 192211Z 32011KT 07/M04 A3025 RMK A01 T00661044  RH  045%=      5-min Rain = 0
KCL1 192212Z 32012KT 07/M04 A3025 RMK A01 T00661044  RH  045%=      5-min Rain = 0
KCL1 192213Z 32011KT 07/M05 A3025 RMK A01 T00661045  RH  045%=      5-min Rain = 0
KCL1 192214Z 33011KT 07/M05 A3025 RMK A01 T00661045  RH  045%=      5-min Rain = 0
KCL1 192215Z 33011KT 07/M04 A3025 RMK A01 T00661044  RH  046%=      5-min Rain = 0
KCL1 192216Z 33008KT 07/M04 A3025 RMK A01 T00661043  RH  046%=      5-min Rain = 0
KCL1 192217Z 32013KT 07/M04 A3025 RMK A01 T00671042  RH  046%=      5-min Rain = 0
KCL1 192218Z 32012KT 07/M04 A3025 RMK A01 T00671043  RH  045%=      5-min Rain = 0
KCL1 192219Z 32012KT 07/M04 A3025 RMK A01 T00671044  RH  045%=      5-min Rain = 0
KCL1 192220Z 33010KT 07/M05 A3025 RMK A01 T00671045  RH  045%=      5-min Rain = 0
KCL1 192221Z 33010KT 07/M05 A3025 RMK A01 T00671045  RH  045%=      5-min Rain = 0
KCL1 192222Z 32009KT 07/M04 A3025 RMK A01 T00661044  RH  045%=      5-min Rain = 0
KCL1 192223Z 32009KT 07/M04 A3025 RMK A01 T00661043  RH  045%=      5-min Rain = 0
KCL1 192224Z 33011KT 07/M04 A3025 RMK A01 T00671042  RH  046%=      5-min Rain = 0
KCL1 192225Z 33010KT 07/M04 A3026 RMK A01 T00671042  RH  045%=      5-min Rain = 0
KCL1 192226Z 33010KT 07/M04 A3025 RMK A01 T00681043  RH  045%=      5-min Rain = 0
KCL1 192227Z 33010KT 07/M04 A3025 RMK A01 T00681044  RH  045%=      5-min Rain = 0
KCL1 192228Z 32011G16KT 07/M05 A3025 RMK A01 T00671045  RH  045%=      5-min Rain = 0
KCL1 192229Z 32012KT 07/M05 A3025 RMK A01 T00681045  RH  045%=      5-min Rain = 0
KCL1 192230Z 33013KT 07/M05 A3025 RMK A01 T00681045  RH  044%=      5-min Rain = 0
KCL1 192231Z 33015KT 07/M05 A3025 RMK A01 T00681046  RH  044%=      5-min Rain = 0
KCL1 192232Z 33013KT 07/M05 A3025 RMK A01 T00671047  RH  044%=      5-min Rain = 0
KCL1 192233Z 32010KT 07/M05 A3025 RMK A01 T00661046  RH  044%=      5-min Rain = 0
KCL1 192234Z 32012KT 07/M05 A3025 RMK A01 T00661046  RH  045%=      5-min Rain = 0
KCL1 192235Z 32009KT 07/M05 A3025 RMK A01 T00661046  RH  044%=      5-min Rain = 0
KCL1 192236Z 32009KT 07/M05 A3025 RMK A01 T00671045  RH  045%=      5-min Rain = 0
KCL1 192237Z 31012KT 07/M04 A3025 RMK A01 T00671044  RH  045%=      5-min Rain = 0
KCL1 192238Z 33009KT 07/M04 A3025 RMK A01 T00681044  RH  045%=      5-min Rain = 0
KCL1 192239Z 33011KT 07/M05 A3025 RMK A01 T00681045  RH  044%=      5-min Rain = 0
KCL1 192240Z 32010KT 07/M05 A3025 RMK A01 T00681045  RH  044%=      5-min Rain = 0
KCL1 192241Z 32010KT 07/M04 A3025 RMK A01 T00691044  RH  044%=      5-min Rain = 0
KCL1 192242Z 33009KT 07/M05 A3025 RMK A01 T00691045  RH  044%=      5-min Rain = 0
KCL1 192243Z 31008KT 07/M05 A3025 RMK A01 T00681045  RH  044%=      5-min Rain = 0
KCL1 192244Z 33010KT 07/M04 A3025 RMK A01 T00691044  RH  044%=      5-min Rain = 0
KCL1 192245Z 33008KT 07/M04 A3026 RMK A01 T00681044  RH  044%=      5-min Rain = 0
KCL1 192246Z 34009KT 07/M05 A3026 RMK A01 T00661046  RH  045%=      5-min Rain = 0
KCL1 192247Z 33009KT 07/M05 A3026 RMK A01 T00661046  RH  045%=      5-min Rain = 0
KCL1 192248Z 32011KT 07/M05 A3026 RMK A01 T00661047  RH  044%=      5-min Rain = 0
KCL1 192249Z 32008KT 07/M05 A3026 RMK A01 T00661047  RH  044%=      5-min Rain = 0
KCL1 192250Z 32010KT 07/M05 A3026 RMK A01 T00661046  RH  045%=      5-min Rain = 0
KCL1 192251Z 33011KT 07/M05 A3026 RMK A01 T00661046  RH  045%=      5-min Rain = 0
KCL1 192252Z 33008KT 07/M05 A3026 RMK A01 T00651046  RH  045%=      5-min Rain = 0
KCL1 192253Z 32010KT 07/M05 A3026 RMK A01 T00651046  RH  045%=      5-min Rain = 0
KCL1 192254Z 32009KT 07/M05 A3026 RMK A01 T00651046  RH  045%=      5-min Rain = 0
KCL1 192255Z 33009KT 07/M05 A3026 RMK A01 T00651046  RH  045%=      5-min Rain = 0
KCL1 192256Z 33008KT 07/M05 A3026 RMK A01 T00651046  RH  045%=      5-min Rain = 0
KCL1 192257Z 33007KT 07/M05 A3026 RMK A01 T00651046  RH  045%=      5-min Rain = 0
KCL1 192258Z 32007KT 07/M05 A3026 RMK A01 T00651045  RH  045%=      5-min Rain = 0
KCL1 192259Z 33013KT 07/M05 A3026 RMK A01 T00651047  RH  045%=      5-min Rain = 0
KCL1 192300Z 32010KT 07/M05 A3026 RMK A01 T00651049  RH  044%=      5-min Rain = 0
KCL1 192301Z 32009KT 06/M05 A3026 RMK A01 T00641050  RH  044%=      5-min Rain = 0
KCL1 192302Z 33007KT 06/M05 A3026 RMK A01 T00641049  RH  044%=      5-min Rain = 0
KCL1 192303Z 32008KT 06/M05 A3026 RMK A01 T00641049  RH  044%=      5-min Rain = 0
KCL1 192304Z 33010KT 07/M05 A3026 RMK A01 T00651049  RH  044%=      5-min Rain = 0
KCL1 192305Z 33010KT 07/M05 A3026 RMK A01 T00651049  RH  044%=      5-min Rain = 0
KCL1 192306Z 33008KT 07/M05 A3026 RMK A01 T00651049  RH  044%=      5-min Rain = 0
KCL1 192307Z 33010KT 06/M05 A3026 RMK A01 T00641049  RH  044%=      5-min Rain = 0
KCL1 192308Z 33009KT 06/M05 A3026 RMK A01 T00641050  RH  044%=      5-min Rain = 0
KCL1 192309Z 33010KT 06/M05 A3026 RMK A01 T00641050  RH  044%=      5-min Rain = 0
KCL1 192310Z 33010KT 06/M05 A3026 RMK A01 T00631050  RH  044%=      5-min Rain = 0
KCL1 192311Z 33009KT 06/M05 A3026 RMK A01 T00631049  RH  045%=      5-min Rain = 0
KCL1 192312Z 33008KT 06/M05 A3027 RMK A01 T00631048  RH  045%=      5-min Rain = 0
KCL1 192313Z 34007KT 06/M05 A3027 RMK A01 T00631048  RH  045%=      5-min Rain = 0
KCL1 192314Z 33007KT 06/M05 A3027 RMK A01 T00631047  RH  045%=      5-min Rain = 0
KCL1 192315Z 33008KT 06/M05 A3027 RMK A01 T00631047  RH  045%=      5-min Rain = 0
KCL1 192316Z 33007KT 06/M05 A3027 RMK A01 T00621048  RH  045%=      5-min Rain = 0
KCL1 192317Z 33008KT 06/M05 A3027 RMK A01 T00621047  RH  046%=      5-min Rain = 0
KCL1 192318Z 34007KT 06/M05 A3027 RMK A01 T00621047  RH  046%=      5-min Rain = 0
KCL1 192319Z 33006KT 06/M05 A3027 RMK A01 T00621047  RH  046%=      5-min Rain = 0
KCL1 192320Z 32009KT 06/M05 A3027 RMK A01 T00611047  RH  046%=      5-min Rain = 0
KCL1 192321Z 32007KT 06/M05 A3027 RMK A01 T00611048  RH  045%=      5-min Rain = 0
KCL1 192322Z 33008KT 06/M05 A3027 RMK A01 T00611048  RH  045%=      5-min Rain = 0
KCL1 192323Z 33008KT 06/M05 A3027 RMK A01 T00611048  RH  046%=      5-min Rain = 0
KCL1 192324Z 33006KT 06/M05 A3027 RMK A01 T00601048  RH  046%=      5-min Rain = 0
KCL1 192325Z 33006KT 06/M05 A3027 RMK A01 T00611047  RH  046%=      5-min Rain = 0
KCL1 192326Z 32009KT 06/M05 A3027 RMK A01 T00601047  RH  046%=      5-min Rain = 0
KCL1 192327Z 33008KT 06/M05 A3027 RMK A01 T00591048  RH  046%=      5-min Rain = 0
KCL1 192328Z 33007KT 06/M05 A3027 RMK A01 T00591048  RH  046%=      5-min Rain = 0
KCL1 192329Z 33007KT 06/M05 A3027 RMK A01 T00591048  RH  046%=      5-min Rain = 0
KCL1 192330Z 33007KT 06/M05 A3027 RMK A01 T00591047  RH  047%=      5-min Rain = 0
KCL1 192331Z 34007KT 06/M05 A3027 RMK A01 T00581047  RH  047%=      5-min Rain = 0
KCL1 192332Z 34007KT 06/M05 A3027 RMK A01 T00571048  RH  047%=      5-min Rain = 0
KCL1 192333Z 34007KT 06/M05 A3027 RMK A01 T00571048  RH  047%=      5-min Rain = 0
KCL1 192334Z 34006KT 06/M05 A3027 RMK A01 T00571048  RH  047%=      5-min Rain = 0
KCL1 192335Z 34006KT 06/M05 A3027 RMK A01 T00571048  RH  047%=      5-min Rain = 0
KCL1 192336Z 34006KT 06/M05 A3027 RMK A01 T00571048  RH  047%=      5-min Rain = 0
KCL1 192337Z 34007KT 06/M05 A3027 RMK A01 T00561048  RH  047%=      5-min Rain = 0
KCL1 192338Z 33005KT 06/M05 A3027 RMK A01 T00561048  RH  047%=      5-min Rain = 0
KCL1 192339Z 33005KT 06/M05 A3027 RMK A01 T00561048  RH  047%=      5-min Rain = 0
KCL1 192340Z 33006KT 06/M05 A3027 RMK A01 T00551049  RH  047%=      5-min Rain = 0
KCL1 192341Z 33005KT 05/M05 A3027 RMK A01 T00541049  RH  047%=      5-min Rain = 0
KCL1 192342Z 33005KT 05/M05 A3027 RMK A01 T00541048  RH  048%=      5-min Rain = 0
KCL1 192343Z 33005KT 05/M05 A3027 RMK A01 T00531049  RH  048%=      5-min Rain = 0
KCL1 192344Z 33005KT 05/M05 A3027 RMK A01 T00521049  RH  048%=      5-min Rain = 0
KCL1 192345Z 33005KT 05/M05 A3027 RMK A01 T00511049  RH  048%=      5-min Rain = 0
KCL1 192346Z 33006KT 05/M05 A3027 RMK A01 T00511049  RH  048%=      5-min Rain = 0
KCL1 192347Z 33005KT 05/M05 A3027 RMK A01 T00501049  RH  049%=      5-min Rain = 0
KCL1 192348Z 33006KT 05/M05 A3026 RMK A01 T00501049  RH  049%=      5-min Rain = 0
KCL1 192349Z 34006KT 05/M05 A3026 RMK A01 T00491050  RH  049%=      5-min Rain = 0
KCL1 192350Z 33006KT 05/M05 A3026 RMK A01 T00481050  RH  049%=      5-min Rain = 0
KCL1 192351Z 33005KT 05/M05 A3026 RMK A01 T00481050  RH  049%=      5-min Rain = 0
KCL1 192352Z 33005KT 05/M05 A3026 RMK A01 T00471050  RH  049%=      5-min Rain = 0
KCL1 192353Z 34006KT 05/M05 A3026 RMK A01 T00471050  RH  050%=      5-min Rain = 0
KCL1 192354Z 34005KT 05/M05 A3026 RMK A01 T00461050  RH  050%=      5-min Rain = 0
KCL1 192355Z 35005KT 05/M05 A3026 RMK A01 T00451050  RH  050%=      5-min Rain = 0
KCL1 192356Z 35006KT 05/M05 A3026 RMK A01 T00451050  RH  050%=      5-min Rain = 0
KCL1 192357Z 35007KT 04/M05 A3026 RMK A01 T00441050  RH  050%=      5-min Rain = 0
KCL1 192358Z 35007KT 04/M05 A3026 RMK A01 T00431051  RH  051%=      5-min Rain = 0
KCL1 192359Z 35008KT 04/M05 A3026 RMK A01 T00411051  RH  051%=      5-min Rain = 0
KCL1 200000Z 35008KT 04/M05 A3026 RMK A01 T00401051  RH  051%=      5-min Rain = 0
KCL1 200001Z 34008KT 04/M05 A3026 RMK A01 T00391052  RH  052%=      5-min Rain = 0
KCL1 200002Z 34007KT 04/M05 A3026 RMK A01 T00381051  RH  052%=      5-min Rain = 0
KCL1 200003Z 33007KT 04/M05 A3026 RMK A01 T00371052  RH  052%=      5-min Rain = 0
KCL1 200004Z 33007KT 04/M05 A3026 RMK A01 T00371051  RH  053%=      5-min Rain = 0
KCL1 200005Z 33007KT 04/M05 A3026 RMK A01 T00371051  RH  053%=      5-min Rain = 0
KCL1 200006Z 33007KT 04/M05 A3026 RMK A01 T00361051  RH  053%=      5-min Rain = 0
KCL1 200007Z 34007KT 04/M05 A3027 RMK A01 T00361051  RH  053%=      5-min Rain = 0
KCL1 200008Z 34007KT 04/M05 A3027 RMK A01 T00351052  RH  053%=      5-min Rain = 0
KCL1 200009Z 34007KT 04/M05 A3027 RMK A01 T00351051  RH  053%=      5-min Rain = 0
KCL1 200010Z 34007KT 04/M05 A3027 RMK A01 T00351051  RH  053%=      5-min Rain = 0
KCL1 200011Z 35007KT 03/M05 A3027 RMK A01 T00341052  RH  053%=      5-min Rain = 0
KCL1 200012Z 35007KT 03/M05 A3027 RMK A01 T00341051  RH  054%=      5-min Rain = 0
KCL1 200013Z 35006KT 03/M05 A3027 RMK A01 T00331052  RH  054%=      5-min Rain = 0
KCL1 200014Z 35006KT 03/M05 A3027 RMK A01 T00331052  RH  054%=      5-min Rain = 0
KCL1 200015Z 35006KT 03/M05 A3027 RMK A01 T00321052  RH  054%=      5-min Rain = 0
KCL1 200016Z 35005KT 03/M05 A3027 RMK A01 T00311052  RH  054%=      5-min Rain = 0
KCL1 200017Z 35005KT 03/M05 A3027 RMK A01 T00311053  RH  054%=      5-min Rain = 0
KCL1 200018Z 35005KT 03/M05 A3027 RMK A01 T00301053  RH  054%=      5-min Rain = 0
KCL1 200019Z 35005KT 03/M05 A3027 RMK A01 T00291053  RH  055%=      5-min Rain = 0
KCL1 200020Z 36005KT 03/M05 A3027 RMK A01 T00281053  RH  055%=      5-min Rain = 0
KCL1 200021Z 35005KT 03/M05 A3027 RMK A01 T00271054  RH  055%=      5-min Rain = 0
KCL1 200022Z 35006KT 03/M05 A3027 RMK A01 T00271053  RH  055%=      5-min Rain = 0
KCL1 200023Z 35007KT 03/M05 A3026 RMK A01 T00271053  RH  056%=      5-min Rain = 0
KCL1 200024Z 35007KT 03/M05 A3026 RMK A01 T00271053  RH  056%=      5-min Rain = 0
KCL1 200025Z 36006KT 03/M05 A3026 RMK A01 T00271052  RH  056%=      5-min Rain = 0
KCL1 200026Z 36006KT 03/M05 A3026 RMK A01 T00271052  RH  056%=      5-min Rain = 0
KCL1 200027Z 36006KT 03/M05 A3026 RMK A01 T00271052  RH  056%=      5-min Rain = 0
KCL1 200028Z 00006KT 03/M05 A3026 RMK A01 T00271052  RH  056%=      5-min Rain = 0
KCL1 200029Z 00007KT 03/M05 A3026 RMK A01 T00261052  RH  056%=      5-min Rain = 0
KCL1 200030Z 00007KT 03/M05 A3026 RMK A01 T00261052  RH  056%=      5-min Rain = 0
KCL1 200031Z 00007KT 03/M05 A3026 RMK A01 T00261052  RH  056%=      5-min Rain = 0
KCL1 200032Z 01008KT 03/M05 A3026 RMK A01 T00261052  RH  056%=      5-min Rain = 0
KCL1 200033Z 01008KT 03/M05 A3026 RMK A01 T00261052  RH  056%=      5-min Rain = 0
KCL1 200034Z 01008KT 03/M05 A3026 RMK A01 T00251053  RH  057%=      5-min Rain = 0
KCL1 200035Z 01008KT 02/M05 A3026 RMK A01 T00241053  RH  057%=      5-min Rain = 0
KCL1 200036Z 01007KT 02/M06 A3027 RMK A01 T00221055  RH  057%=      5-min Rain = 0
KCL1 200037Z 01007KT 02/M06 A3027 RMK A01 T00201056  RH  057%=      5-min Rain = 0
KCL1 200038Z 01006KT 02/M06 A3026 RMK A01 T00181057  RH  058%=      5-min Rain = 0
KCL1 200039Z 01006KT 02/M06 A3026 RMK A01 T00171057  RH  058%=      5-min Rain = 0
KCL1 200040Z 01006KT 02/M06 A3026 RMK A01 T00161057  RH  058%=      5-min Rain = 0
KCL1 200041Z 01006KT 02/M06 A3026 RMK A01 T00161056  RH  059%=      5-min Rain = 0
KCL1 200042Z 02006KT 02/M06 A3026 RMK A01 T00161057  RH  059%=      5-min Rain = 0
KCL1 200043Z 02006KT 02/M06 A3026 RMK A01 T00151057  RH  059%=      5-min Rain = 0
KCL1 200044Z 01006KT 01/M06 A3026 RMK A01 T00141057  RH  059%=      5-min Rain = 0
KCL1 200045Z 02006KT 01/M06 A3026 RMK A01 T00131057  RH  059%=      5-min Rain = 0
KCL1 200046Z 02006KT 01/M06 A3026 RMK A01 T00131057  RH  060%=      5-min Rain = 0
KCL1 200047Z 03006KT 01/M06 A3026 RMK A01 T00141056  RH  060%=      5-min Rain = 0
KCL1 200048Z 02006KT 01/M06 A3026 RMK A01 T00131057  RH  060%=      5-min Rain = 0
KCL1 200049Z 02006KT 01/M06 A3026 RMK A01 T00121058  RH  060%=      5-min Rain = 0
KCL1 200050Z 02006KT 01/M06 A3026 RMK A01 T00111058  RH  060%=      5-min Rain = 0
KCL1 200051Z 02006KT 01/M06 A3026 RMK A01 T00111057  RH  060%=      5-min Rain = 0
KCL1 200052Z 02006KT 01/M06 A3026 RMK A01 T00111057  RH  060%=      5-min Rain = 0
KCL1 200053Z 01006KT 01/M06 A3026 RMK A01 T00131056  RH  060%=      5-min Rain = 0
KCL1 200054Z 01006KT 02/M05 A3026 RMK A01 T00151054  RH  060%=      5-min Rain = 0
KCL1 200055Z 01006KT 02/M05 A3026 RMK A01 T00171053  RH  060%=      5-min Rain = 0
KCL1 200056Z 01006KT 02/M05 A3026 RMK A01 T00191053  RH  059%=      5-min Rain = 0
KCL1 200057Z 01006KT 02/M05 A3026 RMK A01 T00201053  RH  059%=      5-min Rain = 0
KCL1 200058Z 01006KT 02/M05 A3026 RMK A01 T00211052  RH  059%=      5-min Rain = 0
KCL1 200059Z 01007KT 02/M05 A3026 RMK A01 T00211052  RH  058%=      5-min Rain = 0
KCL1 200100Z 00007KT 02/M05 A3026 RMK A01 T00211052  RH  058%=      5-min Rain = 0
KCL1 200101Z 00007KT 02/M05 A3026 RMK A01 T00211052  RH  058%=      5-min Rain = 0
KCL1 200102Z 00007KT 02/M05 A3025 RMK A01 T00211052  RH  058%=      5-min Rain = 0
KCL1 200103Z 00007KT 02/M05 A3025 RMK A01 T00211052  RH  058%=      5-min Rain = 0
KCL1 200104Z 00007KT 02/M05 A3025 RMK A01 T00211053  RH  058%=      5-min Rain = 0
KCL1 200105Z 00007KT 02/M05 A3025 RMK A01 T00211052  RH  058%=      5-min Rain = 0
KCL1 200106Z 00007KT 02/M05 A3025 RMK A01 T00211052  RH  058%=      5-min Rain = 0
KCL1 200107Z 00007KT 02/M05 A3025 RMK A01 T00211052  RH  058%=      5-min Rain = 0
KCL1 200108Z 00007KT 02/M05 A3025 RMK A01 T00221052  RH  058%=      5-min Rain = 0
KCL1 200109Z 36007KT 02/M05 A3025 RMK A01 T00221052  RH  058%=      5-min Rain = 0
KCL1 200110Z 35007KT 02/M05 A3025 RMK A01 T00211053  RH  058%=      5-min Rain = 0
KCL1 200111Z 35006KT 02/M05 A3025 RMK A01 T00201053  RH  058%=      5-min Rain = 0
KCL1 200112Z 36006KT 02/M05 A3024 RMK A01 T00201053  RH  059%=      5-min Rain = 0
KCL1 200113Z 00006KT 02/M05 A3024 RMK A01 T00201053  RH  059%=      5-min Rain = 0
KCL1 200114Z 00006KT 02/M05 A3024 RMK A01 T00201052  RH  059%=      5-min Rain = 0
KCL1 200115Z 01007KT 02/M05 A3024 RMK A01 T00201052  RH  059%=      5-min Rain = 0
KCL1 200116Z 01007KT 02/M05 A3024 RMK A01 T00191052  RH  059%=      5-min Rain = 0
KCL1 200117Z 01007KT 02/M05 A3024 RMK A01 T00191053  RH  059%=      5-min Rain = 0
KCL1 200118Z 02007KT 02/M05 A3024 RMK A01 T00181053  RH  059%=      5-min Rain = 0
KCL1 200119Z 02007KT 02/M05 A3024 RMK A01 T00171054  RH  059%=      5-min Rain = 0
KCL1 200120Z 02007KT 02/M05 A3024 RMK A01 T00161054  RH  060%=      5-min Rain = 0
KCL1 200121Z 03007KT 02/M05 A3024 RMK A01 T00151054  RH  060%=      5-min Rain = 0
KCL1 200122Z 03007KT 02/M05 A3024 RMK A01 T00151054  RH  060%=      5-min Rain = 0
KCL1 200123Z 03007KT 02/M05 A3024 RMK A01 T00151053  RH  060%=      5-min Rain = 0
KCL1 200124Z 03007KT 02/M06 A3024 RMK A01 T00151055  RH  060%=      5-min Rain = 0
KCL1 200125Z 03007KT 01/M06 A3024 RMK A01 T00121057  RH  060%=      5-min Rain = 0
KCL1 200126Z 03007KT 01/M06 A3024 RMK A01 T00101058  RH  061%=      5-min Rain = 0
KCL1 200127Z 03008KT 01/M06 A3024 RMK A01 T00081059  RH  061%=      5-min Rain = 0
KCL1 200128Z 03008KT 01/M06 A3024 RMK A01 T00061059  RH  062%=      5-min Rain = 0
KCL1 200129Z 03008KT 00/M06 A3024 RMK A01 T00041059  RH  063%=      5-min Rain = 0
KCL1 200130Z 03008KT 00/M06 A3024 RMK A01 T00031059  RH  063%=      5-min Rain = 0
KCL1 200131Z 03008KT 00/M06 A3024 RMK A01 T00031059  RH  063%=      5-min Rain = 0
KCL1 200132Z 03008KT 00/M06 A3024 RMK A01 T00021059  RH  064%=      5-min Rain = 0
KCL1 200133Z 04008KT 00/M06 A3024 RMK A01 T00021059  RH  064%=      5-min Rain = 0
KCL1 200134Z 04009KT 00/M06 A3023 RMK A01 T00011059  RH  064%=      5-min Rain = 0
KCL1 200135Z 03008KT 00/06 A3023 RMK A01 T00000-59  RH  064%=      5-min Rain = 0
KCL1 200136Z 03009KT 00/06 A3023 RMK A01 T00-00-59  RH  064%=      5-min Rain = 0
KCL1 200137Z 03009KT M00/M06 A3023 RMK A01 T10011060  RH  065%=      5-min Rain = 0
KCL1 200138Z 03009KT M00/M06 A3023 RMK A01 T10011059  RH  065%=      5-min Rain = 0
KCL1 200139Z 03009KT M00/M06 A3023 RMK A01 T10011059  RH  065%=      5-min Rain = 0
KCL1 200140Z 03009KT M00/M06 A3023 RMK A01 T10011059  RH  065%=      5-min Rain = 0
KCL1 200141Z 03009KT M00/M06 A3023 RMK A01 T10021059  RH  065%=      5-min Rain = 0
KCL1 200142Z 03009KT M00/M06 A3023 RMK A01 T10021059  RH  065%=      5-min Rain = 0
KCL1 200143Z 03010KT M00/M06 A3023 RMK A01 T10011057  RH  066%=      5-min Rain = 0
KCL1 200144Z 03009KT 00/06 A3023 RMK A01 T00000-57  RH  066%=      5-min Rain = 0
KCL1 200145Z 04009KT 00/06 A3023 RMK A01 T00000-57  RH  065%=      5-min Rain = 0
KCL1 200146Z 04009KT 00/M06 A3023 RMK A01 T00011057  RH  065%=      5-min Rain = 0
KCL1 200147Z 04009KT 00/06 A3023 RMK A01 T00000-57  RH  065%=      5-min Rain = 0
KCL1 200148Z 04009KT M00/M06 A3023 RMK A01 T10011057  RH  066%=      5-min Rain = 0
KCL1 200149Z 04009KT M00/M06 A3023 RMK A01 T10021058  RH  066%=      5-min Rain = 0
KCL1 200150Z 04010KT M00/M06 A3023 RMK A01 T10031059  RH  066%=      5-min Rain = 0
KCL1 200151Z 04010KT M00/M06 A3023 RMK A01 T10041059  RH  066%=      5-min Rain = 0
KCL1 200152Z 04010KT M01/M06 A3023 RMK A01 T10051059  RH  067%=      5-min Rain = 0
KCL1 200153Z 04010KT M01/M06 A3023 RMK A01 T10051059  RH  067%=      5-min Rain = 0
KCL1 200154Z 04010KT M01/M06 A3023 RMK A01 T10051058  RH  067%=      5-min Rain = 0
KCL1 200155Z 04011KT M01/M06 A3023 RMK A01 T10051057  RH  068%=      5-min Rain = 0
KCL1 200156Z 04011KT M00/M06 A3023 RMK A01 T10041056  RH  068%=      5-min Rain = 0
KCL1 200157Z 03011KT M00/M06 A3023 RMK A01 T10031055  RH  068%=      5-min Rain = 0
KCL1 200158Z 03010KT M00/M05 A3023 RMK A01 T10021054  RH  068%=      5-min Rain = 0
KCL1 200159Z 03010KT M00/M05 A3023 RMK A01 T10021054  RH  068%=      5-min Rain = 0
KCL1 200200Z 03010KT M00/M05 A3024 RMK A01 T10011053  RH  068%=      5-min Rain = 0
KCL1 200201Z 03009KT 00/05 A3024 RMK A01 T00000-53  RH  068%=      5-min Rain = 0
KCL1 200202Z 03010KT 00/M05 A3024 RMK A01 T00011052  RH  067%=      5-min Rain = 0
KCL1 200203Z 03010KT 00/M05 A3024 RMK A01 T00011052  RH  067%=      5-min Rain = 0
KCL1 200204Z 03010KT 00/M05 A3025 RMK A01 T00011053  RH  067%=      5-min Rain = 0
KCL1 200205Z 03010KT 00/05 A3025 RMK A01 T00000-53  RH  067%=      5-min Rain = 0
KCL1 200206Z 03010KT 00/05 A3025 RMK A01 T00-00-53  RH  067%=      5-min Rain = 0
KCL1 200207Z 03011KT 00/05 A3025 RMK A01 T00-00-53  RH  068%=      5-min Rain = 0
KCL1 200208Z 03010KT M00/M05 A3025 RMK A01 T10011053  RH  068%=      5-min Rain = 0
KCL1 200209Z 03010KT M00/M05 A3025 RMK A01 T10011053  RH  068%=      5-min Rain = 0
KCL1 200210Z 03010KT M00/M05 A3025 RMK A01 T10011053  RH  068%=      5-min Rain = 0
KCL1 200211Z 03010KT 00/05 A3025 RMK A01 T00-00-52  RH  068%=      5-min Rain = 0
KCL1 200212Z 03009KT M00/M05 A3025 RMK A01 T10011052  RH  068%=      5-min Rain = 0
KCL1 200213Z 03008KT M00/M05 A3025 RMK A01 T10011052  RH  068%=      5-min Rain = 0
KCL1 200214Z 03008KT M00/M05 A3025 RMK A01 T10011052  RH  068%=      5-min Rain = 0
KCL1 200215Z 03008KT M00/M05 A3025 RMK A01 T10011053  RH  068%=      5-min Rain = 0
KCL1 200216Z 03008KT M00/M05 A3026 RMK A01 T10021053  RH  069%=      5-min Rain = 0
KCL1 200217Z 03007KT M00/M05 A3026 RMK A01 T10031053  RH  069%=      5-min Rain = 0
KCL1 200218Z 03006KT M00/M05 A3026 RMK A01 T10031053  RH  069%=      5-min Rain = 0
KCL1 200219Z 03006KT M00/M05 A3026 RMK A01 T10031053  RH  069%=      5-min Rain = 0
KCL1 200220Z 03006KT M00/M05 A3026 RMK A01 T10021051  RH  070%=      5-min Rain = 0
KCL1 200221Z 03006KT 00/05 A3026 RMK A01 T00000-49  RH  070%=      5-min Rain = 0
KCL1 200222Z 03006KT 00/M05 A3026 RMK A01 T00021048  RH  069%=      5-min Rain = 0
KCL1 200223Z 02006KT 00/M05 A3026 RMK A01 T00031048  RH  069%=      5-min Rain = 0
KCL1 200224Z 02006KT 00/M05 A3026 RMK A01 T00041048  RH  068%=      5-min Rain = 0
KCL1 200225Z 02006KT 00/M05 A3026 RMK A01 T00041048  RH  068%=      5-min Rain = 0
KCL1 200226Z 02006KT 00/M05 A3027 RMK A01 T00041048  RH  068%=      5-min Rain = 0
KCL1 200227Z 02006KT 01/M05 A3027 RMK A01 T00051048  RH  068%=      5-min Rain = 0
KCL1 200228Z 02007KT 01/M05 A3026 RMK A01 T00051049  RH  067%=      5-min Rain = 0
KCL1 200229Z 03007KT 00/M05 A3026 RMK A01 T00041050  RH  067%=      5-min Rain = 0
KCL1 200230Z 03008KT 00/M05 A3026 RMK A01 T00041049  RH  068%=      5-min Rain = 0
KCL1 200231Z 03008KT 00/M05 A3026 RMK A01 T00041049  RH  068%=      5-min Rain = 0
KCL1 200232Z 03008KT 00/M05 A3026 RMK A01 T00031050  RH  067%=      5-min Rain = 0
KCL1 200233Z 04008KT 00/M05 A3026 RMK A01 T00021052  RH  067%=      5-min Rain = 0
KCL1 200234Z 04008KT M00/M05 A3026 RMK A01 T10011054  RH  067%=      5-min Rain = 0
KCL1 200235Z 04008KT M00/M05 A3026 RMK A01 T10031054  RH  068%=      5-min Rain = 0
KCL1 200236Z 04009KT M00/M05 A3025 RMK A01 T10041054  RH  069%=      5-min Rain = 0
KCL1 200237Z 04008KT M01/M06 A3026 RMK A01 T10051055  RH  069%=      5-min Rain = 0
KCL1 200238Z 04007KT M01/M06 A3026 RMK A01 T10061055  RH  070%=      5-min Rain = 0
KCL1 200239Z 04006KT M01/M06 A3026 RMK A01 T10071055  RH  070%=      5-min Rain = 0
KCL1 200240Z 04006KT M01/M06 A3026 RMK A01 T10071055  RH  070%=      5-min Rain = 0
KCL1 200241Z 04006KT M01/M05 A3026 RMK A01 T10071053  RH  071%=      5-min Rain = 0
KCL1 200242Z 04006KT M01/M05 A3026 RMK A01 T10051051  RH  071%=      5-min Rain = 0
KCL1 200243Z 04005KT M00/M05 A3026 RMK A01 T10041050  RH  071%=      5-min Rain = 0
KCL1 200244Z 04005KT M00/M05 A3026 RMK A01 T10031050  RH  070%=      5-min Rain = 0
KCL1 200245Z 04005KT M00/M05 A3026 RMK A01 T10021049  RH  070%=      5-min Rain = 0
KCL1 200246Z 04005KT 00/05 A3025 RMK A01 T00-00-49  RH  070%=      5-min Rain = 0
KCL1 200247Z 04005KT 00/M05 A3026 RMK A01 T00011049  RH  069%=      5-min Rain = 0
KCL1 200248Z 04005KT 00/M05 A3026 RMK A01 T00011048  RH  069%=      5-min Rain = 0
KCL1 200249Z 04005KT 00/M05 A3026 RMK A01 T00021048  RH  069%=      5-min Rain = 0
KCL1 200250Z 04004KT 00/M05 A3026 RMK A01 T00021048  RH  069%=      5-min Rain = 0
KCL1 200251Z 04004KT 00/M05 A3026 RMK A01 T00021048  RH  069%=      5-min Rain = 0
KCL1 200252Z 04004KT 00/M05 A3026 RMK A01 T00021048  RH  069%=      5-min Rain = 0
KCL1 200253Z 04004KT 00/M05 A3026 RMK A01 T00031048  RH  069%=      5-min Rain = 0
KCL1 200254Z 04005KT 00/M05 A3026 RMK A01 T00031047  RH  069%=      5-min Rain = 0
KCL1 200255Z 04005KT 00/M05 A3026 RMK A01 T00031048  RH  069%=      5-min Rain = 0
KCL1 200256Z 04005KT 00/M05 A3026 RMK A01 T00031048  RH  069%=      5-min Rain = 0
KCL1 200257Z 05005KT 00/M05 A3026 RMK A01 T00031047  RH  069%=      5-min Rain = 0
KCL1 200258Z 06005KT 00/M05 A3026 RMK A01 T00021049  RH  069%=      5-min Rain = 0
KCL1 200259Z 07004KT 00/05 A3026 RMK A01 T00000-50  RH  069%=      5-min Rain = 0
KCL1 200300Z 07004KT M00/M05 A3025 RMK A01 T10011051  RH  069%=      5-min Rain = 0
KCL1 200301Z 07005KT M00/M05 A3025 RMK A01 T10011050  RH  070%=      5-min Rain = 0
KCL1 200302Z 06005KT M00/M05 A3025 RMK A01 T10021050  RH  070%=      5-min Rain = 0
KCL1 200303Z 05006KT M00/M05 A3025 RMK A01 T10021050  RH  070%=      5-min Rain = 0
KCL1 200304Z 05006KT M00/M05 A3025 RMK A01 T10021049  RH  071%=      5-min Rain = 0
KCL1 200305Z 04006KT M00/M05 A3025 RMK A01 T10011048  RH  071%=      5-min Rain = 0
KCL1 200306Z 04005KT 00/05 A3025 RMK A01 T00-00-47  RH  071%=      5-min Rain = 0
KCL1 200307Z 04005KT 00/05 A3026 RMK A01 T00000-48  RH  070%=      5-min Rain = 0
KCL1 200308Z 04006KT 00/M05 A3025 RMK A01 T00011048  RH  070%=      5-min Rain = 0
KCL1 200309Z 04006KT 00/M05 A3025 RMK A01 T00011048  RH  070%=      5-min Rain = 0
KCL1 200310Z 05007KT 00/M05 A3025 RMK A01 T00011048  RH  070%=      5-min Rain = 0
KCL1 200311Z 05006KT 00/05 A3025 RMK A01 T00-00-49  RH  070%=      5-min Rain = 0
KCL1 200312Z 06006KT M00/M05 A3024 RMK A01 T10031052  RH  070%=      5-min Rain = 0
KCL1 200313Z 06006KT M01/M05 A3024 RMK A01 T10051052  RH  070%=      5-min Rain = 0
KCL1 200314Z 06006KT M01/M05 A3024 RMK A01 T10061052  RH  071%=      5-min Rain = 0
KCL1 200315Z 06006KT M01/M05 A3025 RMK A01 T10071053  RH  071%=      5-min Rain = 0
KCL1 200316Z 06006KT M01/M05 A3024 RMK A01 T10091053  RH  072%=      5-min Rain = 0
KCL1 200317Z 06006KT M01/M05 A3024 RMK A01 T10091053  RH  072%=      5-min Rain = 0
KCL1 200318Z 07007KT M01/M05 A3024 RMK A01 T10101054  RH  072%=      5-min Rain = 0
KCL1 200319Z 07007KT M01/M06 A3024 RMK A01 T10111055  RH  072%=      5-min Rain = 0
KCL1 200320Z 07007KT M01/M06 A3024 RMK A01 T10121055  RH  073%=      5-min Rain = 0
KCL1 200321Z 07006KT M01/M06 A3024 RMK A01 T10121055  RH  073%=      5-min Rain = 0
KCL1 200322Z 07006KT M01/M05 A3024 RMK A01 T10131054  RH  073%=      5-min Rain = 0
KCL1 200323Z 07005KT M01/M05 A3025 RMK A01 T10131054  RH  074%=      5-min Rain = 0
KCL1 200324Z 07005KT M01/M05 A3025 RMK A01 T10121053  RH  074%=      5-min Rain = 0
KCL1 200325Z 07005KT M01/M05 A3025 RMK A01 T10111052  RH  073%=      5-min Rain = 0
KCL1 200326Z 07005KT M01/M05 A3024 RMK A01 T10111053  RH  073%=      5-min Rain = 0
KCL1 200327Z 07006KT M01/M05 A3024 RMK A01 T10111053  RH  073%=      5-min Rain = 0
KCL1 200328Z 07005KT M01/M05 A3024 RMK A01 T10111052  RH  073%=      5-min Rain = 0
KCL1 200329Z 07005KT M01/M05 A3024 RMK A01 T10091051  RH  073%=      5-min Rain = 0
KCL1 200330Z 07005KT M01/M05 A3024 RMK A01 T10081050  RH  073%=      5-min Rain = 0
KCL1 200331Z 07005KT M01/M05 A3024 RMK A01 T10071050  RH  072%=      5-min Rain = 0
KCL1 200332Z 07005KT M01/M05 A3024 RMK A01 T10061050  RH  072%=      5-min Rain = 0
KCL1 200333Z 07004KT M01/M05 A3024 RMK A01 T10061050  RH  072%=      5-min Rain = 0
KCL1 200334Z 07004KT M00/M05 A3024 RMK A01 T10041048  RH  072%=      5-min Rain = 0
KCL1 200335Z 07004KT M00/M05 A3024 RMK A01 T10021046  RH  072%=      5-min Rain = 0
KCL1 200336Z 07004KT 00/05 A3024 RMK A01 T00000-45  RH  071%=      5-min Rain = 0
KCL1 200337Z 07004KT 00/M05 A3024 RMK A01 T00021045  RH  071%=      5-min Rain = 0
KCL1 200338Z 07003KT 00/M05 A3025 RMK A01 T00021046  RH  070%=      5-min Rain = 0
KCL1 200339Z 07003KT 00/M05 A3025 RMK A01 T00021046  RH  070%=      5-min Rain = 0
KCL1 200340Z 07004KT 00/M05 A3024 RMK A01 T00031046  RH  070%=      5-min Rain = 0
KCL1 200341Z 07004KT 00/M05 A3024 RMK A01 T00021047  RH  070%=      5-min Rain = 0
KCL1 200342Z 07004KT 00/M05 A3025 RMK A01 T00011047  RH  070%=      5-min Rain = 0
KCL1 200343Z 07004KT 00/M05 A3024 RMK A01 T00011047  RH  070%=      5-min Rain = 0
KCL1 200344Z 08004KT 00/05 A3024 RMK A01 T00-00-48  RH  070%=      5-min Rain = 0
KCL1 200345Z 09004KT M00/M05 A3024 RMK A01 T10011048  RH  071%=      5-min Rain = 0
KCL1 200346Z 09003KT M00/M05 A3024 RMK A01 T10021048  RH  071%=      5-min Rain = 0
KCL1 200347Z 09003KT M00/M05 A3024 RMK A01 T10031049  RH  071%=      5-min Rain = 0
KCL1 200348Z 09003KT M00/M05 A3024 RMK A01 T10041049  RH  071%=      5-min Rain = 0
KCL1 200349Z 11003KT M00/M05 A3024 RMK A01 T10041049  RH  072%=      5-min Rain = 0
KCL1 200350Z 13003KT M00/M05 A3024 RMK A01 T10041048  RH  072%=      5-min Rain = 0
KCL1 200351Z 14004KT M00/M05 A3024 RMK A01 T10041048  RH  072%=      5-min Rain = 0
KCL1 200352Z 14004KT M00/M05 A3024 RMK A01 T10041048  RH  072%=      5-min Rain = 0
KCL1 200353Z 14004KT M00/M05 A3024 RMK A01 T10031048  RH  072%=      5-min Rain = 0
KCL1 200354Z 14005KT M00/M05 A3023 RMK A01 T10031048  RH  072%=      5-min Rain = 0
KCL1 200355Z 13005KT M00/M05 A3023 RMK A01 T10031048  RH  071%=      5-min Rain = 0
KCL1 200356Z 13005KT M00/M05 A3023 RMK A01 T10031048  RH  072%=      5-min Rain = 0
KCL1 200357Z 13005KT M00/M05 A3023 RMK A01 T10031048  RH  072%=      5-min Rain = 0
KCL1 200358Z 13005KT M00/M05 A3023 RMK A01 T10031047  RH  072%=      5-min Rain = 0
KCL1 200359Z 15005KT M00/M05 A3023 RMK A01 T10021046  RH  072%=      5-min Rain = 0
KCL1 200400Z 16005KT 00/05 A3024 RMK A01 T00000-45  RH  071%=      5-min Rain = 0
KCL1 200401Z 16005KT 00/M05 A3024 RMK A01 T00021045  RH  071%=      5-min Rain = 0
KCL1 200402Z 16005KT 00/M05 A3024 RMK A01 T00031045  RH  070%=      5-min Rain = 0
KCL1 200403Z 17005KT 00/M05 A3024 RMK A01 T00031045  RH  070%=      5-min Rain = 0
KCL1 200404Z 17005KT 00/M05 A3024 RMK A01 T00041046  RH  069%=      5-min Rain = 0
KCL1 200405Z 17005KT 01/M05 A3024 RMK A01 T00051045  RH  069%=      5-min Rain = 0
KCL1 200406Z 18005KT 01/M05 A3024 RMK A01 T00061045  RH  068%=      5-min Rain = 0
KCL1 200407Z 17004KT 01/M05 A3024 RMK A01 T00071045  RH  068%=      5-min Rain = 0
KCL1 200408Z 17005KT 01/M05 A3024 RMK A01 T00071046  RH  068%=      5-min Rain = 0
KCL1 200409Z 16005KT 01/M05 A3023 RMK A01 T00081046  RH  067%=      5-min Rain = 0
KCL1 200410Z 17005KT 01/M05 A3023 RMK A01 T00081046  RH  067%=      5-min Rain = 0
KCL1 200411Z 17006KT 01/M05 A3024 RMK A01 T00081047  RH  067%=      5-min Rain = 0
KCL1 200412Z 17005KT 01/M05 A3024 RMK A01 T00071047  RH  067%=      5-min Rain = 0
KCL1 200413Z 17006KT 01/M05 A3024 RMK A01 T00071047  RH  067%=      5-min Rain = 0
KCL1 200414Z 17006KT 01/M05 A3024 RMK A01 T00071047  RH  067%=      5-min Rain = 0
KCL1 200415Z 18006KT 01/M05 A3024 RMK A01 T00091046  RH  067%=      5-min Rain = 0
KCL1 200416Z 18007KT 01/M05 A3024 RMK A01 T00101046  RH  066%=      5-min Rain = 0
KCL1 200417Z 17007KT 01/M05 A3024 RMK A01 T00101047  RH  066%=      5-min Rain = 0
KCL1 200418Z 17007KT 01/M05 A3023 RMK A01 T00101047  RH  066%=      5-min Rain = 0
KCL1 200419Z 17007KT 01/M05 A3023 RMK A01 T00101047  RH  066%=      5-min Rain = 0
KCL1 200420Z 17007KT 01/M05 A3023 RMK A01 T00101047  RH  066%=      5-min Rain = 0
KCL1 200421Z 17006KT 01/M05 A3024 RMK A01 T00111047  RH  065%=      5-min Rain = 0
KCL1 200422Z 16005KT 01/M05 A3024 RMK A01 T00121047  RH  065%=      5-min Rain = 0
KCL1 200423Z 17005KT 01/M05 A3024 RMK A01 T00121047  RH  065%=      5-min Rain = 0
KCL1 200424Z 17005KT 01/M05 A3025 RMK A01 T00121047  RH  065%=      5-min Rain = 0
KCL1 200425Z 17005KT 01/M05 A3025 RMK A01 T00121047  RH  065%=      5-min Rain = 0
KCL1 200426Z 17005KT 01/M05 A3024 RMK A01 T00121047  RH  065%=      5-min Rain = 0
KCL1 200427Z 16006KT 01/M05 A3024 RMK A01 T00121047  RH  065%=      5-min Rain = 0
KCL1 200428Z 16006KT 01/M05 A3024 RMK A01 T00121047  RH  065%=      5-min Rain = 0
KCL1 200429Z 16006KT 01/M05 A3023 RMK A01 T00121047  RH  065%=      5-min Rain = 0
KCL1 200430Z 16006KT 01/M05 A3023 RMK A01 T00121047  RH  065%=      5-min Rain = 0
KCL1 200431Z 16007KT 01/M05 A3023 RMK A01 T00121047  RH  065%=      5-min Rain = 0
KCL1 200432Z 16007KT 01/M05 A3024 RMK A01 T00121048  RH  065%=      5-min Rain = 0
KCL1 200433Z 17006KT 01/M05 A3024 RMK A01 T00111048  RH  065%=      5-min Rain = 0
KCL1 200434Z 17006KT 01/M05 A3024 RMK A01 T00111048  RH  065%=      5-min Rain = 0
KCL1 200435Z 17005KT 01/M05 A3025 RMK A01 T00101048  RH  065%=      5-min Rain = 0
KCL1 200436Z 17005KT 01/M05 A3025 RMK A01 T00101048  RH  065%=      5-min Rain = 0
KCL1 200437Z 16005KT 01/M05 A3024 RMK A01 T00101048  RH  065%=      5-min Rain = 0
KCL1 200438Z 16005KT 01/M05 A3024 RMK A01 T00101049  RH  065%=      5-min Rain = 0
KCL1 200439Z 15005KT 01/M05 A3024 RMK A01 T00101049  RH  065%=      5-min Rain = 0
KCL1 200440Z 16005KT 01/M05 A3024 RMK A01 T00091049  RH  065%=      5-min Rain = 0
KCL1 200441Z 16006KT 01/M05 A3024 RMK A01 T00091049  RH  065%=      5-min Rain = 0
KCL1 200442Z 16005KT 01/M05 A3024 RMK A01 T00081049  RH  066%=      5-min Rain = 0
KCL1 200443Z 15006KT 01/M05 A3025 RMK A01 T00081049  RH  066%=      5-min Rain = 0
KCL1 200444Z 16006KT 01/M05 A3025 RMK A01 T00081048  RH  066%=      5-min Rain = 0
KCL1 200445Z 15006KT 01/M05 A3025 RMK A01 T00081048  RH  066%=      5-min Rain = 0
KCL1 200446Z 15006KT 01/M05 A3025 RMK A01 T00081048  RH  066%=      5-min Rain = 0
KCL1 200447Z 15006KT 01/M05 A3025 RMK A01 T00091048  RH  066%=      5-min Rain = 0
KCL1 200448Z 15005KT 01/M05 A3025 RMK A01 T00091048  RH  066%=      5-min Rain = 0
KCL1 200449Z 15005KT 01/M05 A3025 RMK A01 T00091048  RH  066%=      5-min Rain = 0
KCL1 200450Z 15005KT 01/M05 A3025 RMK A01 T00101048  RH  065%=      5-min Rain = 0
KCL1 200451Z 15004KT 01/M05 A3025 RMK A01 T00101048  RH  065%=      5-min Rain = 0
KCL1 200452Z 14004KT 01/M05 A3025 RMK A01 T00101048  RH  065%=      5-min Rain = 0
KCL1 200453Z 14004KT 01/M05 A3025 RMK A01 T00101048  RH  065%=      5-min Rain = 0
KCL1 200454Z 14005KT 01/M05 A3025 RMK A01 T00101048  RH  065%=      5-min Rain = 0
KCL1 200455Z 14005KT 01/M05 A3024 RMK A01 T00101048  RH  066%=      5-min Rain = 0
KCL1 200456Z 14005KT 01/M05 A3024 RMK A01 T00091048  RH  066%=      5-min Rain = 0
KCL1 200457Z 14005KT 01/M05 A3024 RMK A01 T00081048  RH  066%=      5-min Rain = 0
KCL1 200458Z 14006KT 01/M05 A3024 RMK A01 T00081049  RH  066%=      5-min Rain = 0
KCL1 200459Z 14006KT 01/M05 A3024 RMK A01 T00071049  RH  066%=      5-min Rain = 0
KCL1 200500Z 14007KT 01/M05 A3024 RMK A01 T00061049  RH  066%=      5-min Rain = 0
KCL1 200501Z 14007KT 01/M05 A3024 RMK A01 T00051050  RH  067%=      5-min Rain = 0
KCL1 200502Z 14007KT 01/M05 A3024 RMK A01 T00051050  RH  067%=      5-min Rain = 0
KCL1 200503Z 14007KT 00/M05 A3024 RMK A01 T00041050  RH  067%=      5-min Rain = 0
KCL1 200504Z 14006KT 00/M05 A3025 RMK A01 T00041050  RH  067%=      5-min Rain = 0
KCL1 200505Z 15006KT 01/M05 A3025 RMK A01 T00051050  RH  067%=      5-min Rain = 0
KCL1 200506Z 15005KT 01/M05 A3025 RMK A01 T00051051  RH  066%=      5-min Rain = 0
KCL1 200507Z 16005KT 01/M05 A3025 RMK A01 T00051051  RH  066%=      5-min Rain = 0
KCL1 200508Z 16005KT 01/M05 A3025 RMK A01 T00051051  RH  066%=      5-min Rain = 0
KCL1 200509Z 16005KT 01/M05 A3025 RMK A01 T00051051  RH  066%=      5-min Rain = 0
KCL1 200510Z 16006KT 01/M05 A3026 RMK A01 T00061051  RH  066%=      5-min Rain = 0
KCL1 200511Z 16006KT 01/M05 A3026 RMK A01 T00061051  RH  066%=      5-min Rain = 0
KCL1 200512Z 16006KT 01/M05 A3026 RMK A01 T00061051  RH  066%=      5-min Rain = 0
KCL1 200513Z 16006KT 01/M05 A3026 RMK A01 T00061051  RH  066%=      5-min Rain = 0
KCL1 200514Z 16005KT 01/M05 A3026 RMK A01 T00071050  RH  066%=      5-min Rain = 0
KCL1 200515Z 16005KT 01/M05 A3026 RMK A01 T00071050  RH  065%=      5-min Rain = 0
KCL1 200516Z 16005KT 01/M05 A3026 RMK A01 T00071050  RH  065%=      5-min Rain = 0
KCL1 200517Z 16005KT 01/M05 A3025 RMK A01 T00081051  RH  065%=      5-min Rain = 0
KCL1 200518Z 16005KT 01/M05 A3025 RMK A01 T00081050  RH  065%=      5-min Rain = 0
KCL1 200519Z 15006KT 01/M05 A3025 RMK A01 T00071051  RH  065%=      5-min Rain = 0
KCL1 200520Z 14007KT 01/M05 A3025 RMK A01 T00061052  RH  065%=      5-min Rain = 0
KCL1 200521Z 14007KT 00/M05 A3025 RMK A01 T00041053  RH  066%=      5-min Rain = 0
KCL1 200522Z 14007KT 00/M05 A3025 RMK A01 T00021054  RH  066%=      5-min Rain = 0
KCL1 200523Z 14008KT 00/M05 A3025 RMK A01 T00021054  RH  066%=      5-min Rain = 0
KCL1 200524Z 14008KT 00/M05 A3025 RMK A01 T00011054  RH  067%=      5-min Rain = 0
KCL1 200525Z 14009KT 00/M05 A3025 RMK A01 T00011053  RH  067%=      5-min Rain = 0
KCL1 200526Z 14009KT 00/M05 A3025 RMK A01 T00021052  RH  067%=      5-min Rain = 0
KCL1 200527Z 15009KT 00/M05 A3025 RMK A01 T00031051  RH  067%=      5-min Rain = 0
KCL1 200528Z 15008KT 00/M05 A3025 RMK A01 T00031052  RH  067%=      5-min Rain = 0
KCL1 200529Z 15007KT 00/M05 A3026 RMK A01 T00021052  RH  067%=      5-min Rain = 0
KCL1 200530Z 15007KT 00/M05 A3026 RMK A01 T00021051  RH  067%=      5-min Rain = 0
KCL1 200531Z 15006KT 00/M05 A3026 RMK A01 T00021051  RH  067%=      5-min Rain = 0
KCL1 200532Z 15005KT 00/M05 A3027 RMK A01 T00011051  RH  068%=      5-min Rain = 0
KCL1 200533Z 15005KT 00/M05 A3027 RMK A01 T00011051  RH  068%=      5-min Rain = 0
KCL1 200534Z 16005KT 00/M05 A3027 RMK A01 T00021051  RH  068%=      5-min Rain = 0
KCL1 200535Z 16006KT 00/M05 A3027 RMK A01 T00021051  RH  068%=      5-min Rain = 0
KCL1 200536Z 16006KT 00/M05 A3027 RMK A01 T00021050  RH  068%=      5-min Rain = 0
KCL1 200537Z 15006KT 00/M05 A3027 RMK A01 T00021051  RH  067%=      5-min Rain = 0
KCL1 200538Z 15006KT 00/M05 A3027 RMK A01 T00021051  RH  067%=      5-min Rain = 0
KCL1 200539Z 14008KT 00/M05 A3026 RMK A01 T00021051  RH  068%=      5-min Rain = 0
KCL1 200540Z 14009KT 00/M05 A3026 RMK A01 T00011051  RH  068%=      5-min Rain = 0
KCL1 200541Z 14009KT 00/05 A3026 RMK A01 T00000-51  RH  068%=      5-min Rain = 0
KCL1 200542Z 14008KT 00/M05 A3026 RMK A01 T00011050  RH  069%=      5-min Rain = 0
KCL1 200543Z 15007KT 00/M05 A3027 RMK A01 T00021049  RH  069%=      5-min Rain = 0
KCL1 200544Z 15007KT 00/M05 A3027 RMK A01 T00021049  RH  068%=      5-min Rain = 0
KCL1 200545Z 15006KT 00/M05 A3027 RMK A01 T00021049  RH  069%=      5-min Rain = 0
KCL1 200546Z 15006KT 00/M05 A3028 RMK A01 T00011050  RH  069%=      5-min Rain = 0
KCL1 200547Z 15006KT 00/M05 A3028 RMK A01 T00011050  RH  069%=      5-min Rain = 0
KCL1 200548Z 16006KT 00/05 A3028 RMK A01 T00-00-50  RH  069%=      5-min Rain = 0
KCL1 200549Z 15006KT M00/M05 A3028 RMK A01 T10011050  RH  069%=      5-min Rain = 0
KCL1 200550Z 15007KT M00/M05 A3028 RMK A01 T10011049  RH  070%=      5-min Rain = 0
KCL1 200551Z 15007KT M00/M05 A3027 RMK A01 T10011049  RH  070%=      5-min Rain = 0
KCL1 200552Z 15007KT M00/M05 A3027 RMK A01 T10021050  RH  070%=      5-min Rain = 0
KCL1 200553Z 14007KT M00/M05 A3026 RMK A01 T10031050  RH  070%=      5-min Rain = 0
KCL1 200554Z 14008KT M00/M05 A3026 RMK A01 T10041051  RH  071%=      5-min Rain = 0
KCL1 200555Z 14009KT M01/M05 A3025 RMK A01 T10061051  RH  071%=      5-min Rain = 0
KCL1 200556Z 14009KT M01/M05 A3025 RMK A01 T10071051  RH  072%=      5-min Rain = 0
KCL1 200557Z 14007KT M01/M05 A3025 RMK A01 T10081051  RH  073%=      5-min Rain = 0
KCL1 200558Z 14007KT M01/M05 A3026 RMK A01 T10091051  RH  073%=      5-min Rain = 0
KCL1 200559Z 14006KT M01/M05 A3026 RMK A01 T10101051  RH  074%=      5-min Rain = 0

Page generated in 0.1419 seconds.